UAE366 OMDB-RCTP
Flight info
| Callsign | UAE366 |
|---|---|
| Flight time | 7h 40m |
| Altitude | 35000 |
| Route | IVURO M677 LALDO B505 NADSO A777 VAXIM L301 RASKI L639 BPL A791 BEGUM/N0490F370 A791 CEA B465 CTG A599 LINSO/K0907S1130 A599 BIPOP/K0893S1190 A599 POU B330 TAMOT/N0482F390 B330 BIGEX DCT DALOL V631 ENVAR M750 EXTRA/N0515F290 M750 TONGA TONGA1A |
| Aircraft | B77W/H-SDE1E2E3FGHIJ2J3J4J5M1RWXY/LB1D1 |
Departure
| Time | 2026-04-26 06:23 |
|---|---|
| Airport | Dubai International Airport (OMDB) |
Arrival
| Time | 2026-04-26 14:03 |
|---|---|
| Airport | Taiwan Taoyuan International Airport (RCTP) |
| Time | Latitude | Longitude | Altitude | Speed | Heading |
|---|---|---|---|---|---|
| 2026-04-26 05:56 | 25.24139 | 55.37556 | 48 ft | 0 kts | 301° |
| 2026-04-26 06:12 | 25.24135 | 55.37561 | 48 ft | 2 kts | 301° |
| 2026-04-26 06:12 | 25.24125 | 55.37580 | 48 ft | 3 kts | 303° |
| 2026-04-26 06:13 | 25.24114 | 55.37598 | 48 ft | 3 kts | 302° |
| 2026-04-26 06:13 | 25.24105 | 55.37614 | 48 ft | 3 kts | 306° |
| 2026-04-26 06:13 | 25.24095 | 55.37629 | 48 ft | 3 kts | 325° |
| 2026-04-26 06:13 | 25.24082 | 55.37638 | 48 ft | 3 kts | 354° |
| 2026-04-26 06:14 | 25.24068 | 55.37638 | 48 ft | 3 kts | 23° |
| 2026-04-26 06:14 | 25.24051 | 55.37628 | 48 ft | 3 kts | 34° |
| 2026-04-26 06:14 | 25.24035 | 55.37616 | 48 ft | 2 kts | 31° |
| 2026-04-26 06:14 | 25.24022 | 55.37607 | 48 ft | 2 kts | 31° |
| 2026-04-26 06:15 | 25.24018 | 55.37605 | 48 ft | 0 kts | 31° |
| 2026-04-26 06:17 | 25.24027 | 55.37610 | 48 ft | 3 kts | 31° |
| 2026-04-26 06:18 | 25.24042 | 55.37621 | 48 ft | 3 kts | 31° |
| 2026-04-26 06:18 | 25.24070 | 55.37640 | 48 ft | 11 kts | 31° |
| 2026-04-26 06:18 | 25.24137 | 55.37685 | 48 ft | 11 kts | 31° |
| 2026-04-26 06:18 | 25.24201 | 55.37727 | 48 ft | 10 kts | 31° |
| 2026-04-26 06:19 | 25.24263 | 55.37768 | 48 ft | 10 kts | 31° |
| 2026-04-26 06:19 | 25.24320 | 55.37809 | 48 ft | 10 kts | 33° |
| 2026-04-26 06:19 | 25.24376 | 55.37849 | 48 ft | 9 kts | 33° |
| 2026-04-26 06:19 | 25.24439 | 55.37896 | 48 ft | 15 kts | 34° |
| 2026-04-26 06:20 | 25.24520 | 55.37957 | 48 ft | 14 kts | 35° |
| 2026-04-26 06:20 | 25.24590 | 55.38012 | 48 ft | 10 kts | 35° |
| 2026-04-26 06:20 | 25.24641 | 55.38049 | 48 ft | 8 kts | 32° |
| 2026-04-26 06:20 | 25.24687 | 55.38076 | 48 ft | 7 kts | 18° |
| 2026-04-26 06:21 | 25.24736 | 55.38076 | 48 ft | 7 kts | 341° |
| 2026-04-26 06:21 | 25.24779 | 55.38053 | 48 ft | 7 kts | 332° |
| 2026-04-26 06:21 | 25.24813 | 55.38019 | 48 ft | 7 kts | 304° |
| 2026-04-26 06:21 | 25.24837 | 55.37977 | 48 ft | 6 kts | 300° |
| 2026-04-26 06:22 | 25.24906 | 55.37847 | 48 ft | 46 kts | 301° |
| 2026-04-26 06:22 | 25.25195 | 55.37324 | 48 ft | 113 kts | 302° |
| 2026-04-26 06:22 | 25.25716 | 55.36383 | 48 ft | 170 kts | 302° |
| 2026-04-26 06:22 | 25.26407 | 55.35155 | 228 ft | 198 kts | 302° |
| 2026-04-26 06:23 | 25.27141 | 55.33817 | 749 ft | 210 kts | 300° |
| 2026-04-26 06:23 | 25.27872 | 55.32438 | 1605 ft | 202 kts | 298° |
| 2026-04-26 06:23 | 25.28579 | 55.31105 | 2317 ft | 201 kts | 301° |
| 2026-04-26 06:23 | 25.29363 | 55.29777 | 2774 ft | 210 kts | 309° |
| 2026-04-26 06:24 | 25.30593 | 55.28858 | 3136 ft | 223 kts | 337° |
| 2026-04-26 06:24 | 25.32111 | 55.28662 | 3811 ft | 223 kts | 359° |
| 2026-04-26 06:24 | 25.33667 | 55.28985 | 4352 ft | 229 kts | 14° |
| 2026-04-26 06:24 | 25.35203 | 55.29486 | 4945 ft | 234 kts | 14° |
| 2026-04-26 06:25 | 25.36278 | 55.29715 | 5347 ft | 234 kts | 8° |
| 2026-04-26 06:25 | 25.36997 | 55.29819 | 5693 ft | 231 kts | 7° |
| 2026-04-26 06:25 | 25.38602 | 55.30052 | 6222 ft | 239 kts | 9° |
| 2026-04-26 06:25 | 25.40147 | 55.30742 | 6705 ft | 246 kts | 30° |
| 2026-04-26 06:26 | 25.41427 | 55.32069 | 7055 ft | 260 kts | 45° |
| 2026-04-26 06:26 | 25.42651 | 55.33622 | 7495 ft | 272 kts | 49° |
| 2026-04-26 06:26 | 25.43882 | 55.35267 | 7935 ft | 284 kts | 49° |
| 2026-04-26 06:26 | 25.45025 | 55.36812 | 8453 ft | 289 kts | 50° |
| 2026-04-26 06:27 | 25.46349 | 55.38633 | 9164 ft | 293 kts | 51° |
| 2026-04-26 06:27 | 25.47611 | 55.40437 | 9784 ft | 296 kts | 52° |
| 2026-04-26 06:27 | 25.48811 | 55.42262 | 10566 ft | 295 kts | 54° |
| 2026-04-26 06:27 | 25.50048 | 55.44138 | 10962 ft | 311 kts | 52° |
| 2026-04-26 06:28 | 25.51441 | 55.46043 | 11271 ft | 328 kts | 51° |
| 2026-04-26 06:28 | 25.52600 | 55.48303 | 11490 ft | 350 kts | 66° |
| 2026-04-26 06:28 | 25.53160 | 55.50942 | 11948 ft | 365 kts | 83° |
| 2026-04-26 06:28 | 25.52954 | 55.53834 | 12384 ft | 381 kts | 103° |
| 2026-04-26 06:29 | 25.51903 | 55.56522 | 13033 ft | 388 kts | 122° |
| 2026-04-26 06:29 | 25.50767 | 55.58118 | 13394 ft | 395 kts | 134° |
| 2026-04-26 06:29 | 25.47989 | 55.60643 | 14659 ft | 389 kts | 142° |
| 2026-04-26 06:29 | 25.45989 | 55.62683 | 15284 ft | 396 kts | 132° |
| 2026-04-26 06:30 | 25.44457 | 55.65215 | 15849 ft | 403 kts | 120° |
| 2026-04-26 06:30 | 25.43586 | 55.67103 | 16256 ft | 407 kts | 116° |
| 2026-04-26 06:30 | 25.42446 | 55.69949 | 16748 ft | 416 kts | 112° |
| 2026-04-26 06:30 | 25.41578 | 55.73059 | 17208 ft | 425 kts | 102° |
| 2026-04-26 06:31 | 25.41072 | 55.76286 | 17884 ft | 426 kts | 100° |
| 2026-04-26 06:31 | 25.40527 | 55.79516 | 18486 ft | 431 kts | 100° |
| 2026-04-26 06:31 | 25.39881 | 55.82794 | 19052 ft | 436 kts | 103° |
| 2026-04-26 06:31 | 25.39182 | 55.86085 | 19575 ft | 441 kts | 104° |
| 2026-04-26 06:32 | 25.38449 | 55.89397 | 20085 ft | 449 kts | 104° |
| 2026-04-26 06:32 | 25.37710 | 55.92774 | 20540 ft | 456 kts | 104° |
| 2026-04-26 06:32 | 25.36944 | 55.96231 | 20949 ft | 462 kts | 105° |
| 2026-04-26 06:32 | 25.36164 | 55.99595 | 21840 ft | 456 kts | 105° |
| 2026-04-26 06:33 | 25.35439 | 56.03049 | 22141 ft | 465 kts | 101° |
| 2026-04-26 06:33 | 25.34736 | 56.06558 | 22361 ft | 472 kts | 101° |
| 2026-04-26 06:33 | 25.34076 | 56.10108 | 23117 ft | 470 kts | 101° |
| 2026-04-26 06:33 | 25.33430 | 56.13654 | 23700 ft | 467 kts | 101° |
| 2026-04-26 06:34 | 25.32803 | 56.17146 | 24632 ft | 461 kts | 100° |
| 2026-04-26 06:34 | 25.32296 | 56.20642 | 25139 ft | 461 kts | 95° |
| 2026-04-26 06:34 | 25.32045 | 56.24196 | 25470 ft | 468 kts | 92° |
| 2026-04-26 06:34 | 25.31886 | 56.27818 | 25788 ft | 473 kts | 92° |
| 2026-04-26 06:35 | 25.31732 | 56.31443 | 26006 ft | 480 kts | 92° |
| 2026-04-26 06:35 | 25.31432 | 56.36373 | 26785 ft | 478 kts | 93° |
| 2026-04-26 06:35 | 25.31233 | 56.38791 | 26947 ft | 484 kts | 96° |
| 2026-04-26 06:35 | 25.30878 | 56.42554 | 26995 ft | 494 kts | 97° |
| 2026-04-26 06:36 | 25.30550 | 56.46364 | 27274 ft | 497 kts | 96° |
| 2026-04-26 06:36 | 25.30303 | 56.50135 | 28037 ft | 492 kts | 94° |
| 2026-04-26 06:36 | 25.30251 | 56.53946 | 28456 ft | 494 kts | 90° |
| 2026-04-26 06:36 | 25.30206 | 56.57677 | 29145 ft | 487 kts | 94° |
| 2026-04-26 06:37 | 25.29811 | 56.61439 | 29235 ft | 495 kts | 101° |
| 2026-04-26 06:37 | 25.27889 | 56.68763 | 29969 ft | 493 kts | 112° |
| 2026-04-26 06:37 | 25.26683 | 56.72291 | 30076 ft | 500 kts | 115° |
| 2026-04-26 06:38 | 25.25321 | 56.75836 | 30378 ft | 503 kts | 116° |
| 2026-04-26 06:38 | 25.23898 | 56.79386 | 30617 ft | 506 kts | 117° |
| 2026-04-26 06:38 | 25.22437 | 56.82945 | 30884 ft | 510 kts | 117° |
| 2026-04-26 06:38 | 25.20977 | 56.86544 | 31168 ft | 513 kts | 117° |
| 2026-04-26 06:39 | 25.19522 | 56.90140 | 31644 ft | 509 kts | 116° |
| 2026-04-26 06:39 | 25.18132 | 56.93708 | 32136 ft | 508 kts | 116° |
| 2026-04-26 06:39 | 25.16722 | 56.97249 | 32282 ft | 513 kts | 116° |
| 2026-04-26 06:39 | 25.15261 | 57.00849 | 32389 ft | 519 kts | 117° |
| 2026-04-26 06:40 | 25.14227 | 57.03410 | 32544 ft | 520 kts | 116° |
| 2026-04-26 06:40 | 25.11549 | 57.10295 | 32954 ft | 525 kts | 115° |
| 2026-04-26 06:40 | 25.10179 | 57.14025 | 33342 ft | 524 kts | 114° |
| 2026-04-26 06:41 | 25.08850 | 57.17786 | 33637 ft | 525 kts | 113° |
| 2026-04-26 06:41 | 25.07508 | 57.21519 | 33835 ft | 527 kts | 113° |
| 2026-04-26 06:41 | 25.06117 | 57.25285 | 34042 ft | 530 kts | 113° |
| 2026-04-26 06:41 | 25.04717 | 57.29063 | 34260 ft | 531 kts | 114° |
| 2026-04-26 06:42 | 25.03284 | 57.32829 | 34393 ft | 535 kts | 114° |
| 2026-04-26 06:42 | 25.01829 | 57.36605 | 34548 ft | 537 kts | 114° |
| 2026-04-26 06:42 | 25.00371 | 57.40373 | 34705 ft | 539 kts | 114° |
| 2026-04-26 06:42 | 24.98878 | 57.44159 | 34904 ft | 540 kts | 115° |
| 2026-04-26 06:43 | 24.97260 | 57.47903 | 34887 ft | 539 kts | 116° |
| 2026-04-26 06:43 | 24.93920 | 57.55280 | 34884 ft | 536 kts | 116° |
| 2026-04-26 06:44 | 24.90870 | 57.62757 | 34886 ft | 534 kts | 113° |
| 2026-04-26 06:44 | 24.88004 | 57.70294 | 34883 ft | 530 kts | 113° |
| 2026-04-26 06:45 | 24.85119 | 57.77719 | 34883 ft | 530 kts | 113° |
| 2026-04-26 06:45 | 24.82193 | 57.85181 | 34881 ft | 530 kts | 115° |
| 2026-04-26 06:46 | 24.78992 | 57.92455 | 34881 ft | 529 kts | 117° |
| 2026-04-26 06:46 | 24.75745 | 57.99689 | 34877 ft | 526 kts | 116° |
| 2026-04-26 06:47 | 24.72539 | 58.06943 | 34879 ft | 525 kts | 116° |
| 2026-04-26 06:47 | 24.69354 | 58.14171 | 34877 ft | 526 kts | 116° |
| 2026-04-26 06:48 | 24.66203 | 58.21381 | 34877 ft | 525 kts | 116° |
| 2026-04-26 06:48 | 24.63024 | 58.28635 | 34877 ft | 525 kts | 116° |
| 2026-04-26 06:49 | 24.59871 | 58.35793 | 34876 ft | 525 kts | 116° |
| 2026-04-26 06:49 | 24.56659 | 58.43068 | 34874 ft | 522 kts | 116° |
| 2026-04-26 06:50 | 24.53527 | 58.50198 | 34872 ft | 522 kts | 116° |
| 2026-04-26 06:50 | 24.51686 | 58.54357 | 34873 ft | 522 kts | 116° |
| 2026-04-26 06:51 | 24.48507 | 58.61507 | 34872 ft | 523 kts | 116° |
| 2026-04-26 06:51 | 24.43727 | 58.72243 | 34873 ft | 519 kts | 117° |
| 2026-04-26 06:52 | 24.40558 | 58.79369 | 34874 ft | 518 kts | 116° |
| 2026-04-26 06:52 | 24.37403 | 58.86459 | 34876 ft | 518 kts | 116° |
| 2026-04-26 06:53 | 24.34260 | 58.93509 | 34876 ft | 517 kts | 116° |
| 2026-04-26 06:53 | 24.31095 | 59.00602 | 34876 ft | 518 kts | 116° |
| 2026-04-26 06:54 | 24.27943 | 59.07654 | 34875 ft | 518 kts | 116° |
| 2026-04-26 06:54 | 24.24785 | 59.14770 | 34878 ft | 517 kts | 116° |
| 2026-04-26 06:55 | 24.21706 | 59.21718 | 34877 ft | 517 kts | 116° |
| 2026-04-26 06:55 | 24.18538 | 59.28807 | 34877 ft | 517 kts | 116° |
| 2026-04-26 06:56 | 24.15373 | 59.35846 | 34878 ft | 517 kts | 116° |
| 2026-04-26 06:56 | 24.12177 | 59.42945 | 34877 ft | 517 kts | 116° |
| 2026-04-26 06:57 | 24.09002 | 59.49993 | 34876 ft | 517 kts | 116° |
| 2026-04-26 06:57 | 24.05849 | 59.56963 | 34890 ft | 517 kts | 116° |
| 2026-04-26 06:58 | 24.02653 | 59.64004 | 34891 ft | 517 kts | 116° |
| 2026-04-26 06:58 | 23.99450 | 59.71050 | 34890 ft | 517 kts | 116° |
| 2026-04-26 06:59 | 23.96262 | 59.78052 | 34893 ft | 517 kts | 116° |
| 2026-04-26 06:59 | 23.93031 | 59.85153 | 34902 ft | 515 kts | 116° |
| 2026-04-26 07:00 | 23.89887 | 59.92126 | 34902 ft | 515 kts | 116° |
| 2026-04-26 07:00 | 23.86712 | 59.99117 | 34906 ft | 514 kts | 116° |
| 2026-04-26 07:01 | 23.83527 | 60.06103 | 34890 ft | 516 kts | 116° |
| 2026-04-26 07:01 | 23.80300 | 60.13168 | 34893 ft | 517 kts | 115° |
| 2026-04-26 07:02 | 23.77214 | 60.19913 | 34894 ft | 515 kts | 115° |
| 2026-04-26 07:02 | 23.75059 | 60.24615 | 34891 ft | 515 kts | 116° |
| 2026-04-26 07:03 | 23.71847 | 60.31619 | 34888 ft | 516 kts | 116° |
| 2026-04-26 07:03 | 23.68635 | 60.38611 | 34887 ft | 515 kts | 116° |
| 2026-04-26 07:04 | 23.65428 | 60.45582 | 34887 ft | 515 kts | 116° |
| 2026-04-26 07:04 | 23.62223 | 60.52539 | 34885 ft | 513 kts | 116° |
| 2026-04-26 07:05 | 23.58999 | 60.59526 | 34886 ft | 512 kts | 116° |
| 2026-04-26 07:05 | 23.55812 | 60.66424 | 34885 ft | 513 kts | 116° |
| 2026-04-26 07:06 | 23.52596 | 60.73374 | 34886 ft | 511 kts | 116° |
| 2026-04-26 07:06 | 23.49380 | 60.80314 | 34887 ft | 509 kts | 116° |
| 2026-04-26 07:07 | 23.46221 | 60.87126 | 34885 ft | 510 kts | 116° |
| 2026-04-26 07:07 | 23.43017 | 60.94065 | 34886 ft | 511 kts | 116° |
| 2026-04-26 07:08 | 23.39802 | 61.00963 | 34888 ft | 510 kts | 116° |
| 2026-04-26 07:08 | 23.36588 | 61.07843 | 34888 ft | 509 kts | 116° |
| 2026-04-26 07:09 | 23.33399 | 61.14725 | 34885 ft | 508 kts | 114° |
| 2026-04-26 07:09 | 23.31233 | 61.22018 | 34891 ft | 508 kts | 99° |
| 2026-04-26 07:11 | 23.29609 | 61.41057 | 34891 ft | 506 kts | 94° |
| 2026-04-26 07:11 | 23.28949 | 61.48676 | 34893 ft | 506 kts | 95° |
| 2026-04-26 07:12 | 23.28262 | 61.56312 | 34891 ft | 506 kts | 94° |
| 2026-04-26 07:12 | 23.27601 | 61.63947 | 34892 ft | 506 kts | 94° |
| 2026-04-26 07:13 | 23.26921 | 61.71550 | 34895 ft | 506 kts | 95° |
| 2026-04-26 07:13 | 23.26404 | 61.77240 | 34895 ft | 506 kts | 95° |
| 2026-04-26 07:14 | 23.25713 | 61.84788 | 34893 ft | 506 kts | 95° |
| 2026-04-26 07:14 | 23.25010 | 61.92399 | 34897 ft | 506 kts | 95° |
| 2026-04-26 07:15 | 23.24304 | 62.00011 | 34896 ft | 505 kts | 95° |
| 2026-04-26 07:15 | 23.23596 | 62.07595 | 34895 ft | 505 kts | 95° |
| 2026-04-26 07:16 | 23.22882 | 62.15197 | 34897 ft | 505 kts | 95° |
| 2026-04-26 07:16 | 23.22163 | 62.22818 | 34897 ft | 506 kts | 95° |
| 2026-04-26 07:17 | 23.21565 | 62.29132 | 34896 ft | 506 kts | 95° |
| 2026-04-26 07:17 | 23.20717 | 62.38031 | 34897 ft | 506 kts | 95° |
| 2026-04-26 07:18 | 23.20111 | 62.44362 | 34898 ft | 507 kts | 95° |
| 2026-04-26 07:18 | 23.19378 | 62.51981 | 34898 ft | 507 kts | 95° |
| 2026-04-26 07:19 | 23.18638 | 62.59630 | 34899 ft | 508 kts | 94° |
| 2026-04-26 07:19 | 23.17896 | 62.67267 | 34899 ft | 508 kts | 95° |
| 2026-04-26 07:20 | 23.17149 | 62.74913 | 34899 ft | 509 kts | 95° |
| 2026-04-26 07:20 | 23.16398 | 62.82561 | 34899 ft | 509 kts | 95° |
| 2026-04-26 07:21 | 23.15645 | 62.90193 | 34900 ft | 509 kts | 95° |
| 2026-04-26 07:21 | 23.14885 | 62.97851 | 34900 ft | 510 kts | 95° |
| 2026-04-26 07:22 | 23.14122 | 63.05505 | 34899 ft | 510 kts | 95° |
| 2026-04-26 07:22 | 23.13353 | 63.13192 | 34900 ft | 509 kts | 95° |
| 2026-04-26 07:23 | 23.12589 | 63.20778 | 34899 ft | 509 kts | 95° |
| 2026-04-26 07:23 | 23.11813 | 63.28448 | 34899 ft | 509 kts | 95° |
| 2026-04-26 07:24 | 23.11037 | 63.36083 | 34900 ft | 508 kts | 95° |
| 2026-04-26 07:24 | 23.10495 | 63.41400 | 34899 ft | 508 kts | 95° |
| 2026-04-26 07:25 | 23.09714 | 63.49023 | 34898 ft | 509 kts | 95° |
| 2026-04-26 07:25 | 23.08951 | 63.56603 | 34899 ft | 508 kts | 95° |
| 2026-04-26 07:26 | 23.08165 | 63.64221 | 34898 ft | 506 kts | 95° |
| 2026-04-26 07:26 | 23.07367 | 63.71824 | 34897 ft | 507 kts | 95° |
| 2026-04-26 07:27 | 23.06562 | 63.79466 | 34899 ft | 507 kts | 95° |
| 2026-04-26 07:27 | 23.05766 | 63.87024 | 34899 ft | 506 kts | 95° |
| 2026-04-26 07:28 | 23.04993 | 63.94626 | 34898 ft | 506 kts | 95° |
| 2026-04-26 07:28 | 23.04217 | 64.02234 | 34900 ft | 507 kts | 95° |
| 2026-04-26 07:29 | 23.03439 | 64.09808 | 34900 ft | 506 kts | 95° |
| 2026-04-26 07:29 | 23.02650 | 64.17452 | 34899 ft | 507 kts | 95° |
| 2026-04-26 07:30 | 23.01872 | 64.24994 | 34899 ft | 506 kts | 95° |
| 2026-04-26 07:30 | 23.01115 | 64.32585 | 34899 ft | 505 kts | 95° |
| 2026-04-26 07:31 | 23.00336 | 64.40165 | 34897 ft | 506 kts | 95° |
| 2026-04-26 07:31 | 22.99545 | 64.47773 | 34896 ft | 506 kts | 95° |
| 2026-04-26 07:32 | 22.98776 | 64.55327 | 34896 ft | 505 kts | 95° |
| 2026-04-26 07:32 | 22.97974 | 64.62929 | 34894 ft | 505 kts | 96° |
| 2026-04-26 07:33 | 22.97170 | 64.70470 | 34892 ft | 505 kts | 96° |
| 2026-04-26 07:33 | 22.96364 | 64.78014 | 34892 ft | 505 kts | 96° |
| 2026-04-26 07:34 | 22.95688 | 64.85615 | 34891 ft | 504 kts | 91° |
| 2026-04-26 07:34 | 22.95645 | 64.93226 | 34891 ft | 504 kts | 88° |
| 2026-04-26 07:35 | 22.95788 | 64.99508 | 34890 ft | 504 kts | 88° |
| 2026-04-26 07:35 | 22.95882 | 65.06361 | 34891 ft | 504 kts | 89° |
| 2026-04-26 07:36 | 22.95930 | 65.13991 | 34889 ft | 504 kts | 89° |
| 2026-04-26 07:36 | 22.95962 | 65.21577 | 34892 ft | 504 kts | 89° |
| 2026-04-26 07:37 | 22.96022 | 65.29152 | 34891 ft | 504 kts | 89° |
| 2026-04-26 07:37 | 22.96060 | 65.36752 | 34891 ft | 504 kts | 89° |
| 2026-04-26 07:38 | 22.96087 | 65.44364 | 34891 ft | 504 kts | 89° |
| 2026-04-26 07:38 | 22.96108 | 65.51968 | 34892 ft | 503 kts | 89° |
| 2026-04-26 07:39 | 22.96124 | 65.59561 | 34890 ft | 504 kts | 89° |
| 2026-04-26 07:39 | 22.96137 | 65.67171 | 34891 ft | 504 kts | 89° |
| 2026-04-26 07:40 | 22.96146 | 65.74788 | 34891 ft | 503 kts | 89° |
| 2026-04-26 07:40 | 22.96151 | 65.82328 | 34890 ft | 503 kts | 89° |
| 2026-04-26 07:41 | 22.96153 | 65.89923 | 34890 ft | 504 kts | 89° |
| 2026-04-26 07:41 | 22.96151 | 65.97522 | 34890 ft | 503 kts | 89° |
| 2026-04-26 07:42 | 22.96146 | 66.05128 | 34890 ft | 503 kts | 89° |
| 2026-04-26 07:42 | 22.96137 | 66.12702 | 34889 ft | 503 kts | 89° |
| 2026-04-26 07:43 | 22.96124 | 66.20300 | 34890 ft | 503 kts | 89° |
| 2026-04-26 07:43 | 22.96108 | 66.27899 | 34889 ft | 503 kts | 89° |
| 2026-04-26 07:44 | 22.96088 | 66.35494 | 34887 ft | 504 kts | 89° |
| 2026-04-26 07:44 | 22.96065 | 66.43085 | 34888 ft | 503 kts | 89° |
| 2026-04-26 07:45 | 22.96038 | 66.50656 | 34886 ft | 504 kts | 90° |
| 2026-04-26 07:45 | 22.96007 | 66.58269 | 34883 ft | 504 kts | 89° |
| 2026-04-26 07:46 | 22.95993 | 66.63855 | 34882 ft | 503 kts | 89° |
| 2026-04-26 07:46 | 22.95966 | 66.71400 | 34882 ft | 503 kts | 90° |
| 2026-04-26 07:47 | 22.95918 | 66.79035 | 34881 ft | 504 kts | 90° |
| 2026-04-26 07:47 | 22.95867 | 66.86581 | 34880 ft | 503 kts | 90° |
| 2026-04-26 07:48 | 22.95815 | 66.94165 | 34880 ft | 503 kts | 90° |
| 2026-04-26 07:48 | 22.95797 | 67.01784 | 34880 ft | 503 kts | 89° |
| 2026-04-26 07:49 | 22.95818 | 67.09390 | 34880 ft | 504 kts | 89° |
| 2026-04-26 07:49 | 22.95826 | 67.16993 | 34880 ft | 504 kts | 89° |
| 2026-04-26 07:50 | 22.95828 | 67.28406 | 34880 ft | 504 kts | 89° |
| 2026-04-26 07:50 | 22.95836 | 67.36002 | 34879 ft | 503 kts | 89° |
| 2026-04-26 07:51 | 22.95858 | 67.43568 | 34877 ft | 503 kts | 89° |
| 2026-04-26 07:51 | 22.95860 | 67.51160 | 34877 ft | 504 kts | 89° |
| 2026-04-26 07:52 | 22.95874 | 67.58758 | 34873 ft | 504 kts | 89° |
| 2026-04-26 07:52 | 22.95862 | 67.66352 | 34872 ft | 504 kts | 89° |
| 2026-04-26 07:53 | 22.95840 | 67.73944 | 34872 ft | 504 kts | 89° |
| 2026-04-26 07:53 | 22.95817 | 67.81598 | 34870 ft | 504 kts | 89° |
| 2026-04-26 07:54 | 22.95797 | 67.89146 | 34870 ft | 504 kts | 89° |
| 2026-04-26 07:54 | 22.95805 | 67.96771 | 34870 ft | 504 kts | 89° |
| 2026-04-26 07:55 | 22.95813 | 68.04375 | 34870 ft | 504 kts | 89° |
| 2026-04-26 07:55 | 22.95838 | 68.11983 | 34869 ft | 503 kts | 89° |
| 2026-04-26 07:56 | 22.95832 | 68.19565 | 34870 ft | 504 kts | 89° |
| 2026-04-26 07:56 | 22.95823 | 68.25123 | 34869 ft | 504 kts | 89° |
| 2026-04-26 07:57 | 22.95809 | 68.32620 | 34868 ft | 504 kts | 89° |
| 2026-04-26 07:57 | 22.95766 | 68.40163 | 34866 ft | 504 kts | 91° |
| 2026-04-26 07:58 | 22.95351 | 68.47755 | 34866 ft | 502 kts | 94° |
| 2026-04-26 07:58 | 22.94815 | 68.55316 | 34865 ft | 500 kts | 93° |
| 2026-04-26 07:59 | 22.94340 | 68.62782 | 34865 ft | 501 kts | 93° |
| 2026-04-26 07:59 | 22.93878 | 68.70355 | 34865 ft | 501 kts | 93° |
| 2026-04-26 08:00 | 22.93432 | 68.77892 | 34866 ft | 501 kts | 93° |
| 2026-04-26 08:00 | 22.93003 | 68.85421 | 34867 ft | 501 kts | 93° |
| 2026-04-26 08:01 | 22.92556 | 68.92948 | 34866 ft | 500 kts | 93° |
| 2026-04-26 08:01 | 22.92099 | 69.00506 | 34864 ft | 499 kts | 93° |
| 2026-04-26 08:02 | 22.91642 | 69.07980 | 34862 ft | 499 kts | 93° |
| 2026-04-26 08:02 | 22.91175 | 69.15547 | 34867 ft | 499 kts | 93° |
| 2026-04-26 08:03 | 22.90712 | 69.23002 | 34878 ft | 497 kts | 93° |
| 2026-04-26 08:03 | 22.90245 | 69.30471 | 34881 ft | 496 kts | 93° |
| 2026-04-26 08:04 | 22.89784 | 69.37958 | 34881 ft | 497 kts | 93° |
| 2026-04-26 08:04 | 22.89400 | 69.44161 | 34900 ft | 495 kts | 94° |
| 2026-04-26 08:05 | 22.88919 | 69.51589 | 34911 ft | 493 kts | 94° |
| 2026-04-26 08:05 | 22.88355 | 69.60200 | 34917 ft | 492 kts | 94° |
| 2026-04-26 08:06 | 22.87946 | 69.66441 | 34897 ft | 493 kts | 94° |
| 2026-04-26 08:06 | 22.87478 | 69.73810 | 34896 ft | 494 kts | 93° |
| 2026-04-26 08:07 | 22.87048 | 69.81253 | 34905 ft | 493 kts | 93° |
| 2026-04-26 08:07 | 22.86683 | 69.87431 | 34875 ft | 494 kts | 93° |
| 2026-04-26 08:08 | 22.86300 | 69.93836 | 34860 ft | 497 kts | 93° |
| 2026-04-26 08:08 | 22.85848 | 70.01336 | 34854 ft | 498 kts | 93° |
| 2026-04-26 08:09 | 22.85400 | 70.08787 | 34856 ft | 497 kts | 93° |
| 2026-04-26 08:09 | 22.84975 | 70.16262 | 34880 ft | 495 kts | 93° |
| 2026-04-26 08:10 | 22.84533 | 70.23687 | 34873 ft | 494 kts | 93° |
| 2026-04-26 08:10 | 22.84079 | 70.31146 | 34874 ft | 495 kts | 93° |
| 2026-04-26 08:11 | 22.83621 | 70.38594 | 34894 ft | 494 kts | 94° |
| 2026-04-26 08:11 | 22.83163 | 70.45993 | 34884 ft | 495 kts | 94° |
| 2026-04-26 08:12 | 22.82715 | 70.53451 | 34883 ft | 495 kts | 93° |
| 2026-04-26 08:12 | 22.82247 | 70.60910 | 34899 ft | 495 kts | 94° |
| 2026-04-26 08:13 | 22.81768 | 70.68354 | 34891 ft | 495 kts | 94° |
| 2026-04-26 08:13 | 22.81285 | 70.75801 | 34883 ft | 496 kts | 94° |
| 2026-04-26 08:14 | 22.80987 | 70.83206 | 34881 ft | 495 kts | 87° |
| 2026-04-26 08:14 | 22.81673 | 70.90627 | 34879 ft | 496 kts | 81° |
| 2026-04-26 08:15 | 22.82850 | 70.97991 | 34864 ft | 496 kts | 79° |
| 2026-04-26 08:15 | 22.84058 | 71.05384 | 34990 ft | 498 kts | 80° |
| 2026-04-26 08:16 | 22.84629 | 71.09094 | 35346 ft | 496 kts | 80° |
| 2026-04-26 08:16 | 22.85177 | 71.12726 | 35735 ft | 493 kts | 80° |
| 2026-04-26 08:16 | 22.85724 | 71.16393 | 36057 ft | 492 kts | 81° |
| 2026-04-26 08:16 | 22.86274 | 71.20094 | 36284 ft | 493 kts | 81° |
| 2026-04-26 08:17 | 22.86828 | 71.23722 | 36474 ft | 494 kts | 80° |
| 2026-04-26 08:17 | 22.87390 | 71.27418 | 36705 ft | 494 kts | 80° |
| 2026-04-26 08:17 | 22.87940 | 71.31076 | 36850 ft | 495 kts | 80° |
| 2026-04-26 08:17 | 22.88493 | 71.34784 | 36844 ft | 495 kts | 80° |
| 2026-04-26 08:18 | 22.89584 | 71.42149 | 36845 ft | 494 kts | 81° |
| 2026-04-26 08:18 | 22.90667 | 71.49503 | 36844 ft | 494 kts | 81° |
| 2026-04-26 08:19 | 22.91418 | 71.54621 | 36845 ft | 495 kts | 81° |
| 2026-04-26 08:19 | 22.92504 | 71.62044 | 36845 ft | 496 kts | 81° |
| 2026-04-26 08:20 | 22.93577 | 71.69402 | 36844 ft | 496 kts | 81° |
| 2026-04-26 08:20 | 22.94649 | 71.76780 | 36836 ft | 496 kts | 81° |
| 2026-04-26 08:21 | 22.95719 | 71.84164 | 36836 ft | 494 kts | 81° |
| 2026-04-26 08:21 | 22.96784 | 71.91546 | 36836 ft | 494 kts | 81° |
| 2026-04-26 08:22 | 22.97847 | 71.98932 | 36833 ft | 495 kts | 81° |
| 2026-04-26 08:22 | 22.98908 | 72.06334 | 36832 ft | 497 kts | 81° |
| 2026-04-26 08:23 | 22.99968 | 72.13748 | 36830 ft | 497 kts | 81° |
| 2026-04-26 08:23 | 23.01017 | 72.21118 | 36806 ft | 497 kts | 81° |
| 2026-04-26 08:24 | 23.02071 | 72.28534 | 36798 ft | 496 kts | 81° |
| 2026-04-26 08:24 | 23.03136 | 72.35929 | 36804 ft | 495 kts | 81° |
| 2026-04-26 08:25 | 23.04174 | 72.43326 | 36800 ft | 495 kts | 81° |
| 2026-04-26 08:25 | 23.05206 | 72.50725 | 36771 ft | 495 kts | 81° |
| 2026-04-26 08:26 | 23.06237 | 72.58133 | 36770 ft | 495 kts | 81° |
| 2026-04-26 08:26 | 23.07182 | 72.65483 | 36771 ft | 495 kts | 84° |
| 2026-04-26 08:27 | 23.07635 | 72.72945 | 36763 ft | 495 kts | 87° |
| 2026-04-26 08:27 | 23.07930 | 72.80422 | 36764 ft | 496 kts | 87° |
| 2026-04-26 08:28 | 23.08293 | 72.87920 | 36765 ft | 495 kts | 86° |
| 2026-04-26 08:28 | 23.08681 | 72.95392 | 36766 ft | 496 kts | 87° |
| 2026-04-26 08:29 | 23.09086 | 73.02844 | 36768 ft | 497 kts | 86° |
| 2026-04-26 08:29 | 23.09513 | 73.10340 | 36769 ft | 497 kts | 86° |
| 2026-04-26 08:30 | 23.09805 | 73.15667 | 36774 ft | 497 kts | 87° |
| 2026-04-26 08:30 | 23.10207 | 73.23160 | 36778 ft | 498 kts | 87° |
| 2026-04-26 08:31 | 23.10604 | 73.30677 | 36782 ft | 498 kts | 86° |
| 2026-04-26 08:31 | 23.10995 | 73.38151 | 36789 ft | 498 kts | 87° |
| 2026-04-26 08:32 | 23.11385 | 73.45661 | 36795 ft | 498 kts | 87° |
| 2026-04-26 08:32 | 23.11771 | 73.53191 | 36805 ft | 498 kts | 87° |
| 2026-04-26 08:33 | 23.12153 | 73.60704 | 36812 ft | 498 kts | 87° |
| 2026-04-26 08:33 | 23.12533 | 73.68231 | 36823 ft | 498 kts | 87° |
| 2026-04-26 08:34 | 23.12905 | 73.75689 | 36824 ft | 497 kts | 87° |
| 2026-04-26 08:34 | 23.13276 | 73.83195 | 36825 ft | 497 kts | 87° |
| 2026-04-26 08:35 | 23.13643 | 73.90691 | 36829 ft | 497 kts | 87° |
| 2026-04-26 08:35 | 23.14007 | 73.98192 | 36828 ft | 497 kts | 87° |
| 2026-04-26 08:36 | 23.14387 | 74.05677 | 36828 ft | 497 kts | 87° |
| 2026-04-26 08:36 | 23.14741 | 74.13186 | 36829 ft | 498 kts | 87° |
| 2026-04-26 08:37 | 23.15085 | 74.20669 | 36829 ft | 498 kts | 87° |
| 2026-04-26 08:37 | 23.15429 | 74.28184 | 36828 ft | 498 kts | 87° |
| 2026-04-26 08:38 | 23.15769 | 74.35711 | 36828 ft | 499 kts | 88° |
| 2026-04-26 08:38 | 23.15934 | 74.43275 | 36828 ft | 500 kts | 89° |
| 2026-04-26 08:39 | 23.16050 | 74.50784 | 36828 ft | 500 kts | 89° |
| 2026-04-26 08:39 | 23.16182 | 74.58364 | 36827 ft | 501 kts | 89° |
| 2026-04-26 08:40 | 23.16318 | 74.65939 | 36827 ft | 502 kts | 89° |
| 2026-04-26 08:40 | 23.16461 | 74.73489 | 36826 ft | 502 kts | 89° |
| 2026-04-26 08:41 | 23.16551 | 74.77440 | 36827 ft | 501 kts | 89° |
| 2026-04-26 08:41 | 23.16706 | 74.85022 | 36827 ft | 501 kts | 89° |
| 2026-04-26 08:42 | 23.16847 | 74.92587 | 36827 ft | 500 kts | 90° |
| 2026-04-26 08:42 | 23.16981 | 75.00155 | 36828 ft | 500 kts | 90° |
| 2026-04-26 08:43 | 23.17111 | 75.07686 | 36833 ft | 499 kts | 90° |
| 2026-04-26 08:43 | 23.17235 | 75.15183 | 36833 ft | 498 kts | 90° |
| 2026-04-26 08:44 | 23.17358 | 75.22747 | 36834 ft | 497 kts | 90° |
| 2026-04-26 08:44 | 23.17475 | 75.30244 | 36841 ft | 502 kts | 90° |
| 2026-04-26 08:45 | 23.17592 | 75.37883 | 36841 ft | 506 kts | 90° |
| 2026-04-26 08:45 | 23.17704 | 75.45510 | 36842 ft | 502 kts | 91° |
| 2026-04-26 08:46 | 23.17812 | 75.53069 | 36854 ft | 506 kts | 91° |
| 2026-04-26 08:46 | 23.17918 | 75.60793 | 36851 ft | 511 kts | 91° |
| 2026-04-26 08:47 | 23.18034 | 75.68450 | 36850 ft | 507 kts | 91° |
| 2026-04-26 08:47 | 23.18138 | 75.76121 | 36857 ft | 509 kts | 91° |
| 2026-04-26 08:48 | 23.18226 | 75.83897 | 36860 ft | 515 kts | 91° |
| 2026-04-26 08:48 | 23.18310 | 75.91616 | 36851 ft | 511 kts | 92° |
| 2026-04-26 08:49 | 23.18394 | 75.99331 | 36849 ft | 514 kts | 91° |
| 2026-04-26 08:49 | 23.18780 | 76.07178 | 36848 ft | 521 kts | 87° |
| 2026-04-26 08:50 | 23.19485 | 76.14965 | 36847 ft | 517 kts | 86° |
| 2026-04-26 08:50 | 23.20138 | 76.22784 | 36843 ft | 520 kts | 86° |
| 2026-04-26 08:51 | 23.21032 | 76.34519 | 36834 ft | 519 kts | 87° |
| 2026-04-26 08:52 | 23.21359 | 76.38812 | 36834 ft | 516 kts | 86° |
| 2026-04-26 08:52 | 23.21875 | 76.45327 | 36834 ft | 517 kts | 86° |
| 2026-04-26 08:53 | 23.22475 | 76.53166 | 36836 ft | 522 kts | 87° |
| 2026-04-26 08:53 | 23.23059 | 76.60965 | 36827 ft | 519 kts | 87° |
| 2026-04-26 08:54 | 23.23638 | 76.68780 | 36822 ft | 519 kts | 87° |
| 2026-04-26 08:54 | 23.24218 | 76.76651 | 36830 ft | 523 kts | 87° |
| 2026-04-26 08:55 | 23.24793 | 76.84529 | 36829 ft | 522 kts | 87° |
| 2026-04-26 08:55 | 23.25361 | 76.92350 | 36832 ft | 521 kts | 88° |
| 2026-04-26 08:56 | 23.25936 | 77.00219 | 36834 ft | 521 kts | 87° |
| 2026-04-26 08:56 | 23.26514 | 77.08075 | 36839 ft | 521 kts | 87° |
| 2026-04-26 08:57 | 23.27063 | 77.15896 | 36852 ft | 520 kts | 87° |
| 2026-04-26 08:57 | 23.27604 | 77.23697 | 36854 ft | 520 kts | 88° |
| 2026-04-26 08:58 | 23.28150 | 77.31532 | 36862 ft | 517 kts | 87° |
| 2026-04-26 08:58 | 23.28299 | 77.39343 | 36860 ft | 517 kts | 94° |
| 2026-04-26 08:59 | 23.27883 | 77.47170 | 36868 ft | 518 kts | 96° |
| 2026-04-26 08:59 | 23.27452 | 77.54983 | 36864 ft | 516 kts | 95° |
| 2026-04-26 09:00 | 23.27096 | 77.62780 | 36832 ft | 519 kts | 94° |
| 2026-04-26 09:00 | 23.26747 | 77.70657 | 36832 ft | 526 kts | 94° |
| 2026-04-26 09:01 | 23.26433 | 77.78628 | 36836 ft | 526 kts | 94° |
| 2026-04-26 09:01 | 23.26104 | 77.86536 | 36801 ft | 528 kts | 95° |
| 2026-04-26 09:02 | 23.25756 | 77.94554 | 36804 ft | 531 kts | 95° |
| 2026-04-26 09:02 | 23.25407 | 78.02577 | 36804 ft | 528 kts | 95° |
| 2026-04-26 09:03 | 23.25191 | 78.07490 | 36797 ft | 528 kts | 94° |
| 2026-04-26 09:03 | 23.24833 | 78.15512 | 36791 ft | 533 kts | 94° |
| 2026-04-26 09:04 | 23.24470 | 78.23510 | 36796 ft | 532 kts | 94° |
| 2026-04-26 09:04 | 23.24105 | 78.31531 | 36784 ft | 531 kts | 94° |
| 2026-04-26 09:05 | 23.23732 | 78.39593 | 36779 ft | 536 kts | 95° |
| 2026-04-26 09:05 | 23.23375 | 78.47669 | 36782 ft | 535 kts | 95° |
| 2026-04-26 09:06 | 23.22987 | 78.55722 | 36780 ft | 536 kts | 95° |
| 2026-04-26 09:06 | 23.22591 | 78.63894 | 36782 ft | 540 kts | 95° |
| 2026-04-26 09:07 | 23.22193 | 78.72003 | 36781 ft | 538 kts | 95° |
| 2026-04-26 09:07 | 23.21904 | 78.80115 | 36781 ft | 540 kts | 92° |
| 2026-04-26 09:08 | 23.21842 | 78.88337 | 36780 ft | 543 kts | 92° |
| 2026-04-26 09:08 | 23.21734 | 78.96544 | 36780 ft | 540 kts | 92° |
| 2026-04-26 09:09 | 23.21600 | 79.04683 | 36775 ft | 540 kts | 92° |
| 2026-04-26 09:09 | 23.21466 | 79.12844 | 36780 ft | 543 kts | 92° |
| 2026-04-26 09:10 | 23.21351 | 79.21040 | 36782 ft | 541 kts | 92° |
| 2026-04-26 09:10 | 23.21234 | 79.29213 | 36779 ft | 540 kts | 92° |
| 2026-04-26 09:11 | 23.21081 | 79.37399 | 36781 ft | 541 kts | 92° |
| 2026-04-26 09:11 | 23.20921 | 79.45564 | 36776 ft | 539 kts | 92° |
| 2026-04-26 09:12 | 23.20764 | 79.53709 | 36778 ft | 540 kts | 92° |
| 2026-04-26 09:12 | 23.20541 | 79.61826 | 36779 ft | 540 kts | 94° |
| 2026-04-26 09:13 | 23.20282 | 79.67287 | 36777 ft | 540 kts | 94° |
| 2026-04-26 09:13 | 23.19926 | 79.75718 | 36782 ft | 541 kts | 94° |
| 2026-04-26 09:14 | 23.19582 | 79.83882 | 36777 ft | 542 kts | 94° |
| 2026-04-26 09:14 | 23.19218 | 79.92085 | 36782 ft | 542 kts | 94° |
| 2026-04-26 09:15 | 23.18860 | 80.00229 | 36776 ft | 543 kts | 94° |
| 2026-04-26 09:15 | 23.18492 | 80.08437 | 36777 ft | 543 kts | 94° |
| 2026-04-26 09:16 | 23.18061 | 80.16645 | 36771 ft | 543 kts | 95° |
| 2026-04-26 09:16 | 23.17628 | 80.24842 | 36768 ft | 543 kts | 95° |
| 2026-04-26 09:17 | 23.17193 | 80.33056 | 36768 ft | 544 kts | 94° |
| 2026-04-26 09:17 | 23.16758 | 80.41268 | 36736 ft | 546 kts | 94° |
| 2026-04-26 09:18 | 23.16366 | 80.49450 | 36734 ft | 547 kts | 95° |
| 2026-04-26 09:18 | 23.15923 | 80.57749 | 36725 ft | 549 kts | 93° |
| 2026-04-26 09:19 | 23.15467 | 80.66027 | 36706 ft | 552 kts | 94° |
| 2026-04-26 09:19 | 23.15005 | 80.74401 | 36703 ft | 557 kts | 94° |
| 2026-04-26 09:20 | 23.14549 | 80.82754 | 36696 ft | 556 kts | 94° |
| 2026-04-26 09:20 | 23.14080 | 80.91130 | 36695 ft | 558 kts | 94° |
| 2026-04-26 09:21 | 23.13601 | 80.99569 | 36685 ft | 559 kts | 94° |
| 2026-04-26 09:21 | 23.13115 | 81.08027 | 36687 ft | 557 kts | 94° |
| 2026-04-26 09:22 | 23.12648 | 81.16365 | 36683 ft | 556 kts | 93° |
| 2026-04-26 09:22 | 23.12194 | 81.24761 | 36681 ft | 557 kts | 93° |
| 2026-04-26 09:23 | 23.11860 | 81.30690 | 36681 ft | 557 kts | 94° |
| 2026-04-26 09:23 | 23.11382 | 81.39062 | 36675 ft | 555 kts | 95° |
| 2026-04-26 09:24 | 23.10894 | 81.47448 | 36674 ft | 555 kts | 95° |
| 2026-04-26 09:24 | 23.10400 | 81.55786 | 36669 ft | 555 kts | 95° |
| 2026-04-26 09:25 | 23.09911 | 81.64077 | 36666 ft | 549 kts | 91° |
| 2026-04-26 09:25 | 23.09410 | 81.72431 | 36657 ft | 555 kts | 95° |
| 2026-04-26 09:26 | 23.08904 | 81.80764 | 36656 ft | 559 kts | 91° |
| 2026-04-26 09:26 | 23.08412 | 81.89183 | 36651 ft | 559 kts | 92° |
| 2026-04-26 09:27 | 23.07891 | 81.97637 | 36648 ft | 559 kts | 95° |
| 2026-04-26 09:27 | 23.07359 | 82.06079 | 36656 ft | 558 kts | 92° |
| 2026-04-26 09:28 | 23.06826 | 82.14497 | 36653 ft | 560 kts | 94° |
| 2026-04-26 09:28 | 23.06396 | 82.22889 | 36648 ft | 559 kts | 94° |
| 2026-04-26 09:29 | 23.06040 | 82.31298 | 36678 ft | 551 kts | 90° |
| 2026-04-26 09:29 | 23.05673 | 82.39560 | 36666 ft | 550 kts | 94° |
| 2026-04-26 09:30 | 23.05288 | 82.47923 | 36663 ft | 553 kts | 94° |
| 2026-04-26 09:30 | 23.04908 | 82.56301 | 36649 ft | 558 kts | 90° |
| 2026-04-26 09:31 | 23.04556 | 82.64665 | 36651 ft | 556 kts | 90° |
| 2026-04-26 09:31 | 23.04184 | 82.73015 | 36645 ft | 553 kts | 90° |
| 2026-04-26 09:32 | 23.03793 | 82.81431 | 36642 ft | 559 kts | 94° |
| 2026-04-26 09:32 | 23.03395 | 82.89870 | 36640 ft | 562 kts | 94° |
| 2026-04-26 09:33 | 23.03175 | 82.94471 | 36645 ft | 562 kts | 94° |
| 2026-04-26 09:33 | 23.02770 | 83.02925 | 36641 ft | 561 kts | 94° |
| 2026-04-26 09:34 | 23.02364 | 83.11326 | 36642 ft | 561 kts | 95° |
| 2026-04-26 09:34 | 23.01952 | 83.19796 | 36643 ft | 561 kts | 94° |
| 2026-04-26 09:35 | 23.01531 | 83.28273 | 36643 ft | 562 kts | 95° |
| 2026-04-26 09:35 | 23.01109 | 83.36755 | 36649 ft | 563 kts | 95° |
| 2026-04-26 09:36 | 23.00682 | 83.45198 | 36651 ft | 563 kts | 95° |
| 2026-04-26 09:36 | 23.00247 | 83.53698 | 36657 ft | 565 kts | 95° |
| 2026-04-26 09:37 | 22.99879 | 83.60861 | 36654 ft | 566 kts | 95° |
| 2026-04-26 09:37 | 22.99436 | 83.69337 | 36662 ft | 566 kts | 95° |
| 2026-04-26 09:38 | 22.98918 | 83.79282 | 36666 ft | 568 kts | 95° |
| 2026-04-26 09:38 | 22.98476 | 83.87882 | 36666 ft | 569 kts | 95° |
| 2026-04-26 09:39 | 22.98009 | 83.96445 | 36669 ft | 569 kts | 95° |
| 2026-04-26 09:39 | 22.97536 | 84.05012 | 36668 ft | 569 kts | 95° |
| 2026-04-26 09:40 | 22.97144 | 84.12136 | 36668 ft | 569 kts | 95° |
| 2026-04-26 09:40 | 22.96574 | 84.20703 | 36664 ft | 569 kts | 96° |
| 2026-04-26 09:41 | 22.95926 | 84.29260 | 36659 ft | 569 kts | 96° |
| 2026-04-26 09:41 | 22.95290 | 84.37832 | 36660 ft | 568 kts | 96° |
| 2026-04-26 09:42 | 22.94661 | 84.46327 | 36655 ft | 569 kts | 96° |
| 2026-04-26 09:42 | 22.94146 | 84.53496 | 36656 ft | 569 kts | 96° |
| 2026-04-26 09:43 | 22.93620 | 84.60837 | 36654 ft | 570 kts | 96° |
| 2026-04-26 09:43 | 22.92990 | 84.69406 | 36647 ft | 570 kts | 96° |
| 2026-04-26 09:44 | 22.92351 | 84.77970 | 36651 ft | 569 kts | 96° |
| 2026-04-26 09:44 | 22.91729 | 84.86520 | 36639 ft | 569 kts | 96° |
| 2026-04-26 09:45 | 22.91082 | 84.95024 | 36631 ft | 570 kts | 96° |
| 2026-04-26 09:45 | 22.90413 | 85.03601 | 36628 ft | 570 kts | 96° |
| 2026-04-26 09:46 | 22.89750 | 85.12187 | 36640 ft | 569 kts | 96° |
| 2026-04-26 09:46 | 22.89084 | 85.20724 | 36652 ft | 568 kts | 96° |
| 2026-04-26 09:47 | 22.88417 | 85.29224 | 36660 ft | 568 kts | 96° |
| 2026-04-26 09:47 | 22.87732 | 85.37818 | 36691 ft | 567 kts | 96° |
| 2026-04-26 09:48 | 22.87054 | 85.46255 | 36706 ft | 566 kts | 97° |
| 2026-04-26 09:48 | 22.86387 | 85.54734 | 36715 ft | 565 kts | 96° |
| 2026-04-26 09:49 | 22.85733 | 85.63219 | 36706 ft | 566 kts | 96° |
| 2026-04-26 09:49 | 22.85048 | 85.71744 | 36709 ft | 566 kts | 96° |
| 2026-04-26 09:50 | 22.84361 | 85.80243 | 36682 ft | 567 kts | 96° |
| 2026-04-26 09:50 | 22.83689 | 85.88712 | 36677 ft | 566 kts | 96° |
| 2026-04-26 09:51 | 22.82990 | 85.97209 | 36681 ft | 566 kts | 97° |
| 2026-04-26 09:51 | 22.82274 | 86.05783 | 36669 ft | 567 kts | 97° |
| 2026-04-26 09:52 | 22.81564 | 86.14251 | 36665 ft | 567 kts | 97° |
| 2026-04-26 09:52 | 22.80925 | 86.22780 | 36668 ft | 567 kts | 95° |
| 2026-04-26 09:53 | 22.80504 | 86.31333 | 36655 ft | 567 kts | 95° |
| 2026-04-26 09:53 | 22.80060 | 86.39826 | 36660 ft | 567 kts | 95° |
| 2026-04-26 09:54 | 22.79585 | 86.48351 | 36653 ft | 567 kts | 95° |
| 2026-04-26 09:54 | 22.79112 | 86.56879 | 36634 ft | 567 kts | 95° |
| 2026-04-26 09:55 | 22.78662 | 86.65416 | 36634 ft | 567 kts | 95° |
| 2026-04-26 09:55 | 22.78190 | 86.73941 | 36617 ft | 568 kts | 95° |
| 2026-04-26 09:56 | 22.77710 | 86.82467 | 36614 ft | 567 kts | 95° |
| 2026-04-26 09:56 | 22.77219 | 86.90995 | 36607 ft | 567 kts | 95° |
| 2026-04-26 09:57 | 22.76721 | 86.99545 | 36603 ft | 568 kts | 95° |
| 2026-04-26 09:57 | 22.76222 | 87.08083 | 36607 ft | 567 kts | 95° |
| 2026-04-26 09:58 | 22.75725 | 87.16487 | 36599 ft | 558 kts | 95° |
| 2026-04-26 09:58 | 22.75228 | 87.24837 | 36613 ft | 552 kts | 95° |
| 2026-04-26 09:59 | 22.74730 | 87.33130 | 36611 ft | 551 kts | 95° |
| 2026-04-26 09:59 | 22.74229 | 87.41381 | 36613 ft | 545 kts | 95° |
| 2026-04-26 10:00 | 22.73733 | 87.49504 | 36633 ft | 540 kts | 95° |
| 2026-04-26 10:00 | 22.73231 | 87.57641 | 36636 ft | 541 kts | 95° |
| 2026-04-26 10:01 | 22.72729 | 87.65737 | 36635 ft | 542 kts | 95° |
| 2026-04-26 10:01 | 22.72219 | 87.73874 | 36662 ft | 542 kts | 95° |
| 2026-04-26 10:02 | 22.71704 | 87.82026 | 36655 ft | 542 kts | 95° |
| 2026-04-26 10:02 | 22.71184 | 87.90185 | 36659 ft | 542 kts | 95° |
| 2026-04-26 10:03 | 22.70662 | 87.98305 | 36680 ft | 542 kts | 95° |
| 2026-04-26 10:03 | 22.70134 | 88.06486 | 36669 ft | 542 kts | 95° |
| 2026-04-26 10:04 | 22.69623 | 88.14580 | 36685 ft | 542 kts | 95° |
| 2026-04-26 10:04 | 22.69177 | 88.21397 | 36703 ft | 541 kts | 96° |
| 2026-04-26 10:05 | 22.68728 | 88.28090 | 36697 ft | 541 kts | 96° |
| 2026-04-26 10:05 | 22.68181 | 88.36193 | 36697 ft | 541 kts | 96° |
| 2026-04-26 10:06 | 22.67629 | 88.44308 | 36722 ft | 540 kts | 96° |
| 2026-04-26 10:06 | 22.66553 | 88.52309 | 36728 ft | 538 kts | 103° |
| 2026-04-26 10:07 | 22.65068 | 88.60290 | 36727 ft | 538 kts | 103° |
| 2026-04-26 10:07 | 22.63741 | 88.68205 | 36732 ft | 538 kts | 102° |
| 2026-04-26 10:08 | 22.62412 | 88.76176 | 36733 ft | 538 kts | 99° |
| 2026-04-26 10:08 | 22.61067 | 88.84185 | 36733 ft | 537 kts | 99° |
| 2026-04-26 10:09 | 22.59735 | 88.92106 | 36738 ft | 537 kts | 99° |
| 2026-04-26 10:09 | 22.58577 | 89.00072 | 36728 ft | 536 kts | 97° |
| 2026-04-26 10:10 | 22.57763 | 89.08134 | 36749 ft | 538 kts | 96° |
| 2026-04-26 10:10 | 22.56933 | 89.16120 | 36775 ft | 530 kts | 97° |
| 2026-04-26 10:11 | 22.56071 | 89.23955 | 36785 ft | 524 kts | 97° |
| 2026-04-26 10:11 | 22.55197 | 89.31776 | 36792 ft | 519 kts | 96° |
| 2026-04-26 10:12 | 22.54360 | 89.39529 | 36798 ft | 518 kts | 95° |
| 2026-04-26 10:12 | 22.53507 | 89.47232 | 36812 ft | 514 kts | 95° |
| 2026-04-26 10:13 | 22.52650 | 89.54873 | 36804 ft | 510 kts | 96° |
| 2026-04-26 10:13 | 22.51784 | 89.62532 | 36809 ft | 516 kts | 95° |
| 2026-04-26 10:14 | 22.50908 | 89.70245 | 36823 ft | 514 kts | 96° |
| 2026-04-26 10:14 | 22.50041 | 89.77842 | 36815 ft | 512 kts | 96° |
| 2026-04-26 10:15 | 22.49153 | 89.85588 | 36793 ft | 526 kts | 98° |
| 2026-04-26 10:15 | 22.48238 | 89.93537 | 36805 ft | 538 kts | 97° |
| 2026-04-26 10:16 | 22.47298 | 90.01667 | 36800 ft | 550 kts | 98° |
| 2026-04-26 10:16 | 22.46338 | 90.09938 | 36802 ft | 559 kts | 98° |
| 2026-04-26 10:17 | 22.45364 | 90.18286 | 36787 ft | 566 kts | 98° |
| 2026-04-26 10:17 | 22.44374 | 90.26729 | 36797 ft | 565 kts | 98° |
| 2026-04-26 10:18 | 22.43385 | 90.35133 | 36800 ft | 562 kts | 98° |
| 2026-04-26 10:18 | 22.42391 | 90.43533 | 36790 ft | 564 kts | 98° |
| 2026-04-26 10:19 | 22.41391 | 90.51949 | 36799 ft | 564 kts | 98° |
| 2026-04-26 10:19 | 22.40386 | 90.60377 | 36797 ft | 564 kts | 98° |
| 2026-04-26 10:20 | 22.39547 | 90.67373 | 36794 ft | 564 kts | 98° |
| 2026-04-26 10:20 | 22.38371 | 90.77147 | 36801 ft | 564 kts | 98° |
| 2026-04-26 10:21 | 22.37357 | 90.85530 | 36799 ft | 564 kts | 98° |
| 2026-04-26 10:21 | 22.36334 | 90.93950 | 36797 ft | 565 kts | 98° |
| 2026-04-26 10:22 | 22.35310 | 91.02348 | 36801 ft | 564 kts | 98° |
| 2026-04-26 10:22 | 22.34297 | 91.10779 | 36797 ft | 565 kts | 98° |
| 2026-04-26 10:23 | 22.33257 | 91.19182 | 36816 ft | 563 kts | 92° |
| 2026-04-26 10:23 | 22.32225 | 91.27465 | 36825 ft | 550 kts | 91° |
| 2026-04-26 10:24 | 22.31723 | 91.31502 | 36811 ft | 537 kts | 90° |
| 2026-04-26 10:24 | 22.31234 | 91.35422 | 36805 ft | 531 kts | 90° |
| 2026-04-26 10:24 | 22.30293 | 91.43296 | 36784 ft | 528 kts | 90° |
| 2026-04-26 10:25 | 22.29419 | 91.51225 | 36785 ft | 536 kts | 90° |
| 2026-04-26 10:25 | 22.28520 | 91.59245 | 36782 ft | 538 kts | 90° |
| 2026-04-26 10:26 | 22.27596 | 91.67271 | 36759 ft | 538 kts | 92° |
| 2026-04-26 10:26 | 22.26658 | 91.75380 | 36766 ft | 550 kts | 92° |
| 2026-04-26 10:27 | 22.26084 | 91.82213 | 36765 ft | 548 kts | 83° |
| 2026-04-26 10:27 | 22.26715 | 91.90346 | 36767 ft | 545 kts | 77° |
| 2026-04-26 10:28 | 22.27956 | 91.98471 | 36779 ft | 551 kts | 76° |
| 2026-04-26 10:28 | 22.29108 | 92.06626 | 36778 ft | 549 kts | 76° |
| 2026-04-26 10:29 | 22.30211 | 92.14752 | 36812 ft | 544 kts | 78° |
| 2026-04-26 10:29 | 22.30945 | 92.20165 | 36810 ft | 544 kts | 78° |
| 2026-04-26 10:30 | 22.31873 | 92.26996 | 36795 ft | 534 kts | 75° |
| 2026-04-26 10:30 | 22.32952 | 92.34876 | 36777 ft | 532 kts | 75° |
| 2026-04-26 10:31 | 22.34037 | 92.42745 | 36792 ft | 526 kts | 74° |
| 2026-04-26 10:31 | 22.35117 | 92.50536 | 36784 ft | 528 kts | 76° |
| 2026-04-26 10:32 | 22.36183 | 92.58426 | 36791 ft | 537 kts | 74° |
| 2026-04-26 10:32 | 22.37250 | 92.66347 | 36784 ft | 527 kts | 74° |
| 2026-04-26 10:33 | 22.38302 | 92.74164 | 36777 ft | 529 kts | 75° |
| 2026-04-26 10:33 | 22.39370 | 92.82110 | 36771 ft | 537 kts | 77° |
| 2026-04-26 10:34 | 22.40443 | 92.90149 | 36751 ft | 549 kts | 76° |
| 2026-04-26 10:34 | 22.41532 | 92.98354 | 36734 ft | 554 kts | 79° |
| 2026-04-26 10:35 | 22.42629 | 93.06674 | 36743 ft | 564 kts | 80° |
| 2026-04-26 10:35 | 22.43756 | 93.15134 | 36740 ft | 570 kts | 79° |
| 2026-04-26 10:36 | 22.44899 | 93.23573 | 36745 ft | 570 kts | 79° |
| 2026-04-26 10:36 | 22.46030 | 93.32083 | 36728 ft | 567 kts | 79° |
| 2026-04-26 10:37 | 22.47140 | 93.40514 | 36725 ft | 565 kts | 79° |
| 2026-04-26 10:37 | 22.48244 | 93.48947 | 36734 ft | 567 kts | 79° |
| 2026-04-26 10:38 | 22.49337 | 93.57332 | 36711 ft | 567 kts | 80° |
| 2026-04-26 10:38 | 22.50432 | 93.65770 | 36727 ft | 566 kts | 79° |
| 2026-04-26 10:39 | 22.51524 | 93.74219 | 36732 ft | 570 kts | 79° |
| 2026-04-26 10:39 | 22.52364 | 93.80738 | 36715 ft | 570 kts | 79° |
| 2026-04-26 10:40 | 22.53326 | 93.88241 | 36712 ft | 568 kts | 79° |
| 2026-04-26 10:40 | 22.54407 | 93.96696 | 36717 ft | 569 kts | 79° |
| 2026-04-26 10:41 | 22.55490 | 94.05205 | 36706 ft | 569 kts | 80° |
| 2026-04-26 10:41 | 22.56556 | 94.13617 | 36704 ft | 568 kts | 80° |
| 2026-04-26 10:42 | 22.57628 | 94.22114 | 36706 ft | 570 kts | 80° |
| 2026-04-26 10:42 | 22.58694 | 94.30601 | 36700 ft | 569 kts | 80° |
| 2026-04-26 10:43 | 22.59757 | 94.39095 | 36702 ft | 569 kts | 80° |
| 2026-04-26 10:43 | 22.60808 | 94.47539 | 36699 ft | 570 kts | 80° |
| 2026-04-26 10:44 | 22.61862 | 94.56039 | 36699 ft | 569 kts | 80° |
| 2026-04-26 10:44 | 22.62912 | 94.64546 | 36700 ft | 569 kts | 80° |
| 2026-04-26 10:45 | 22.63954 | 94.73021 | 36704 ft | 564 kts | 77° |
| 2026-04-26 10:45 | 22.64973 | 94.81345 | 36694 ft | 558 kts | 80° |
| 2026-04-26 10:46 | 22.65995 | 94.89733 | 36697 ft | 565 kts | 80° |
| 2026-04-26 10:46 | 22.67022 | 94.98206 | 36703 ft | 565 kts | 78° |
| 2026-04-26 10:47 | 22.68039 | 95.06631 | 36700 ft | 564 kts | 80° |
| 2026-04-26 10:47 | 22.69050 | 95.15041 | 36699 ft | 569 kts | 80° |
| 2026-04-26 10:48 | 22.70069 | 95.23558 | 36698 ft | 571 kts | 80° |
| 2026-04-26 10:48 | 22.71086 | 95.32089 | 36699 ft | 570 kts | 80° |
| 2026-04-26 10:49 | 22.72097 | 95.40616 | 36699 ft | 569 kts | 80° |
| 2026-04-26 10:49 | 22.72643 | 95.45236 | 36698 ft | 569 kts | 80° |
| 2026-04-26 10:50 | 22.73477 | 95.52323 | 36699 ft | 570 kts | 80° |
| 2026-04-26 10:50 | 22.74645 | 95.62288 | 36699 ft | 570 kts | 80° |
| 2026-04-26 10:51 | 22.76107 | 95.74838 | 36740 ft | 552 kts | 77° |
| 2026-04-26 10:52 | 22.77044 | 95.82922 | 36735 ft | 534 kts | 75° |
| 2026-04-26 10:52 | 22.77959 | 95.90859 | 36740 ft | 531 kts | 76° |
| 2026-04-26 10:53 | 22.78878 | 95.98858 | 36732 ft | 538 kts | 77° |
| 2026-04-26 10:53 | 22.79807 | 96.06992 | 36727 ft | 548 kts | 77° |
| 2026-04-26 10:54 | 22.81190 | 96.19166 | 36766 ft | 537 kts | 76° |
| 2026-04-26 10:54 | 22.82091 | 96.27140 | 36751 ft | 530 kts | 75° |
| 2026-04-26 10:55 | 22.82981 | 96.35049 | 36767 ft | 526 kts | 79° |
| 2026-04-26 10:55 | 22.83723 | 96.41673 | 36802 ft | 536 kts | 79° |
| 2026-04-26 10:56 | 22.84782 | 96.51169 | 36792 ft | 548 kts | 77° |
| 2026-04-26 10:56 | 22.85689 | 96.59350 | 36790 ft | 546 kts | 77° |
| 2026-04-26 10:57 | 22.86589 | 96.67498 | 36806 ft | 546 kts | 76° |
| 2026-04-26 10:57 | 22.87486 | 96.75663 | 36808 ft | 546 kts | 77° |
| 2026-04-26 10:58 | 22.88383 | 96.83866 | 36816 ft | 549 kts | 81° |
| 2026-04-26 10:58 | 22.89289 | 96.92190 | 36833 ft | 560 kts | 81° |
| 2026-04-26 10:59 | 22.90203 | 97.00632 | 36834 ft | 567 kts | 81° |
| 2026-04-26 10:59 | 22.91121 | 97.09151 | 36836 ft | 567 kts | 81° |
| 2026-04-26 11:00 | 22.92030 | 97.17636 | 36836 ft | 566 kts | 81° |
| 2026-04-26 11:00 | 22.92928 | 97.26053 | 36836 ft | 565 kts | 81° |
| 2026-04-26 11:01 | 22.93439 | 97.30860 | 36833 ft | 564 kts | 81° |
| 2026-04-26 11:01 | 22.94334 | 97.39327 | 36848 ft | 559 kts | 79° |
| 2026-04-26 11:02 | 22.95222 | 97.47569 | 36865 ft | 543 kts | 79° |
| 2026-04-26 11:02 | 22.95648 | 97.51629 | 36924 ft | 532 kts | 83° |
| 2026-04-26 11:02 | 22.96044 | 97.55445 | 37094 ft | 510 kts | 83° |
| 2026-04-26 11:03 | 22.96825 | 97.63015 | 36971 ft | 499 kts | 83° |
| 2026-04-26 11:03 | 22.97591 | 97.70452 | 36956 ft | 498 kts | 83° |
| 2026-04-26 11:04 | 22.98887 | 97.77857 | 36919 ft | 505 kts | 72° |
| 2026-04-26 11:04 | 23.01180 | 97.85125 | 36918 ft | 512 kts | 67° |
| 2026-04-26 11:05 | 23.03821 | 97.92393 | 36890 ft | 520 kts | 66° |
| 2026-04-26 11:05 | 23.06401 | 97.99756 | 36846 ft | 526 kts | 65° |
| 2026-04-26 11:06 | 23.08528 | 98.05978 | 36829 ft | 535 kts | 66° |
| 2026-04-26 11:06 | 23.11589 | 98.14919 | 36830 ft | 538 kts | 65° |
| 2026-04-26 11:07 | 23.14156 | 98.22418 | 36851 ft | 528 kts | 64° |
| 2026-04-26 11:07 | 23.16666 | 98.29804 | 36846 ft | 516 kts | 64° |
| 2026-04-26 11:08 | 23.19129 | 98.37070 | 36848 ft | 509 kts | 64° |
| 2026-04-26 11:08 | 23.21580 | 98.44317 | 36849 ft | 513 kts | 64° |
| 2026-04-26 11:09 | 23.24058 | 98.51658 | 36848 ft | 521 kts | 64° |
| 2026-04-26 11:09 | 23.26571 | 98.59109 | 36839 ft | 527 kts | 65° |
| 2026-04-26 11:10 | 23.29099 | 98.66565 | 36841 ft | 534 kts | 65° |
| 2026-04-26 11:10 | 23.31674 | 98.74251 | 36853 ft | 542 kts | 67° |
| 2026-04-26 11:11 | 23.34270 | 98.82024 | 36951 ft | 548 kts | 67° |
| 2026-04-26 11:11 | 23.36859 | 98.89776 | 36955 ft | 545 kts | 67° |
| 2026-04-26 11:12 | 23.38150 | 98.93675 | 36959 ft | 544 kts | 68° |
| 2026-04-26 11:12 | 23.40669 | 99.01781 | 36961 ft | 542 kts | 69° |
| 2026-04-26 11:13 | 23.43056 | 99.09456 | 36963 ft | 540 kts | 68° |
| 2026-04-26 11:13 | 23.45494 | 99.17212 | 36961 ft | 540 kts | 68° |
| 2026-04-26 11:14 | 23.47904 | 99.24978 | 36959 ft | 542 kts | 68° |
| 2026-04-26 11:14 | 23.49915 | 99.31474 | 36958 ft | 542 kts | 69° |
| 2026-04-26 11:15 | 23.52788 | 99.40466 | 36948 ft | 539 kts | 64° |
| 2026-04-26 11:15 | 23.55518 | 99.46574 | 36948 ft | 539 kts | 57° |
| 2026-04-26 11:16 | 23.59938 | 99.54765 | 36947 ft | 531 kts | 56° |
| 2026-04-26 11:16 | 23.63053 | 99.60536 | 36946 ft | 527 kts | 57° |
| 2026-04-26 11:17 | 23.67256 | 99.68563 | 36920 ft | 528 kts | 57° |
| 2026-04-26 11:17 | 23.70302 | 99.74418 | 36918 ft | 530 kts | 57° |
| 2026-04-26 11:18 | 23.73950 | 99.81384 | 36918 ft | 527 kts | 57° |
| 2026-04-26 11:18 | 23.77559 | 99.88324 | 36910 ft | 525 kts | 57° |
| 2026-04-26 11:19 | 23.81162 | 99.95274 | 36908 ft | 525 kts | 58° |
| 2026-04-26 11:19 | 23.84773 | 100.02253 | 36903 ft | 527 kts | 58° |
| 2026-04-26 11:20 | 23.88356 | 100.09189 | 36899 ft | 527 kts | 58° |
| 2026-04-26 11:20 | 23.91955 | 100.16164 | 36899 ft | 527 kts | 58° |
| 2026-04-26 11:21 | 23.95561 | 100.23166 | 36898 ft | 526 kts | 58° |
| 2026-04-26 11:21 | 23.99163 | 100.30128 | 36898 ft | 525 kts | 58° |
| 2026-04-26 11:22 | 24.02744 | 100.37105 | 36891 ft | 527 kts | 58° |
| 2026-04-26 11:22 | 24.04730 | 100.40985 | 36890 ft | 528 kts | 58° |
| 2026-04-26 11:23 | 24.08316 | 100.47999 | 36885 ft | 528 kts | 58° |
| 2026-04-26 11:23 | 24.11896 | 100.55002 | 36880 ft | 523 kts | 58° |
| 2026-04-26 11:24 | 24.15408 | 100.61980 | 36875 ft | 524 kts | 58° |
| 2026-04-26 11:24 | 24.18915 | 100.69001 | 36870 ft | 525 kts | 58° |
| 2026-04-26 11:25 | 24.22409 | 100.76004 | 36869 ft | 523 kts | 58° |
| 2026-04-26 11:25 | 24.25900 | 100.83010 | 36869 ft | 524 kts | 58° |
| 2026-04-26 11:26 | 24.29375 | 100.89982 | 36865 ft | 524 kts | 58° |
| 2026-04-26 11:26 | 24.32885 | 100.96972 | 36859 ft | 523 kts | 58° |
| 2026-04-26 11:27 | 24.36372 | 101.03966 | 36861 ft | 523 kts | 58° |
| 2026-04-26 11:27 | 24.39869 | 101.11000 | 36861 ft | 524 kts | 58° |
| 2026-04-26 11:28 | 24.43354 | 101.18024 | 36850 ft | 524 kts | 58° |
| 2026-04-26 11:28 | 24.46827 | 101.25034 | 36833 ft | 522 kts | 58° |
| 2026-04-26 11:29 | 24.50287 | 101.31986 | 36836 ft | 522 kts | 58° |
| 2026-04-26 11:29 | 24.53756 | 101.39021 | 36827 ft | 522 kts | 58° |
| 2026-04-26 11:30 | 24.56624 | 101.44851 | 36824 ft | 522 kts | 58° |
| 2026-04-26 11:30 | 24.60648 | 101.53036 | 36827 ft | 523 kts | 58° |
| 2026-04-26 11:31 | 24.64094 | 101.60086 | 36815 ft | 524 kts | 59° |
| 2026-04-26 11:31 | 24.67517 | 101.67176 | 36808 ft | 524 kts | 59° |
| 2026-04-26 11:32 | 24.70922 | 101.74238 | 36809 ft | 523 kts | 59° |
| 2026-04-26 11:32 | 24.74336 | 101.81331 | 36809 ft | 524 kts | 59° |
| 2026-04-26 11:33 | 24.76194 | 101.85194 | 36807 ft | 523 kts | 59° |
| 2026-04-26 11:33 | 24.79612 | 101.92281 | 36802 ft | 524 kts | 59° |
| 2026-04-26 11:34 | 24.83031 | 101.99343 | 36810 ft | 524 kts | 59° |
| 2026-04-26 11:34 | 24.86446 | 102.06443 | 36809 ft | 524 kts | 59° |
| 2026-04-26 11:35 | 24.89845 | 102.13530 | 36815 ft | 522 kts | 59° |
| 2026-04-26 11:35 | 24.92663 | 102.19414 | 36834 ft | 521 kts | 59° |
| 2026-04-26 11:36 | 24.96636 | 102.27677 | 36925 ft | 524 kts | 59° |
| 2026-04-26 11:36 | 25.00003 | 102.34743 | 36880 ft | 520 kts | 59° |
| 2026-04-26 11:37 | 25.03349 | 102.41783 | 36881 ft | 515 kts | 59° |
| 2026-04-26 11:37 | 25.06544 | 102.48847 | 37053 ft | 517 kts | 68° |
| 2026-04-26 11:38 | 25.07327 | 102.52707 | 37089 ft | 521 kts | 83° |
| 2026-04-26 11:38 | 25.07227 | 102.56651 | 37093 ft | 524 kts | 98° |
| 2026-04-26 11:38 | 25.06231 | 102.60522 | 37097 ft | 526 kts | 114° |
| 2026-04-26 11:38 | 25.04403 | 102.64011 | 37103 ft | 528 kts | 127° |
| 2026-04-26 11:39 | 24.99944 | 102.70477 | 37124 ft | 529 kts | 122° |
| 2026-04-26 11:39 | 24.96704 | 102.77761 | 37135 ft | 529 kts | 114° |
| 2026-04-26 11:40 | 24.93560 | 102.85086 | 37133 ft | 528 kts | 117° |
| 2026-04-26 11:40 | 24.90288 | 102.92347 | 37104 ft | 529 kts | 117° |
| 2026-04-26 11:42 | 24.77494 | 103.21550 | 37033 ft | 532 kts | 117° |
| 2026-04-26 11:43 | 24.74283 | 103.28906 | 37026 ft | 534 kts | 117° |
| 2026-04-26 11:43 | 24.71051 | 103.36255 | 37017 ft | 534 kts | 118° |
| 2026-04-26 11:44 | 24.67821 | 103.43584 | 36981 ft | 535 kts | 118° |
| 2026-04-26 11:44 | 24.66204 | 103.47277 | 36978 ft | 535 kts | 118° |
| 2026-04-26 11:45 | 24.62964 | 103.54597 | 36990 ft | 535 kts | 118° |
| 2026-04-26 11:45 | 24.59694 | 103.61953 | 36959 ft | 536 kts | 118° |
| 2026-04-26 11:46 | 24.56405 | 103.69343 | 36936 ft | 538 kts | 118° |
| 2026-04-26 11:46 | 24.53551 | 103.76894 | 36940 ft | 540 kts | 109° |
| 2026-04-26 11:47 | 24.51661 | 103.84906 | 36939 ft | 541 kts | 103° |
| 2026-04-26 11:47 | 24.50108 | 103.93012 | 36939 ft | 542 kts | 103° |
| 2026-04-26 11:48 | 24.48448 | 104.01104 | 36937 ft | 543 kts | 104° |
| 2026-04-26 11:48 | 24.46725 | 104.09162 | 36940 ft | 543 kts | 104° |
| 2026-04-26 11:49 | 24.45029 | 104.17176 | 36942 ft | 543 kts | 104° |
| 2026-04-26 11:49 | 24.43307 | 104.25258 | 36938 ft | 542 kts | 105° |
| 2026-04-26 11:50 | 24.41575 | 104.33305 | 36947 ft | 541 kts | 105° |
| 2026-04-26 11:50 | 24.39855 | 104.41257 | 36958 ft | 541 kts | 105° |
| 2026-04-26 11:51 | 24.38981 | 104.45290 | 37101 ft | 544 kts | 105° |
| 2026-04-26 11:51 | 24.38119 | 104.49264 | 37419 ft | 542 kts | 105° |
| 2026-04-26 11:51 | 24.37248 | 104.53273 | 37751 ft | 540 kts | 105° |
| 2026-04-26 11:51 | 24.36378 | 104.57273 | 38006 ft | 540 kts | 105° |
| 2026-04-26 11:52 | 24.35502 | 104.61293 | 38237 ft | 540 kts | 105° |
| 2026-04-26 11:52 | 24.34911 | 104.64000 | 38404 ft | 540 kts | 105° |
| 2026-04-26 11:52 | 24.33757 | 104.69282 | 38768 ft | 539 kts | 104° |
| 2026-04-26 11:52 | 24.32880 | 104.73294 | 38938 ft | 540 kts | 104° |
| 2026-04-26 11:53 | 24.31120 | 104.81324 | 38954 ft | 540 kts | 104° |
| 2026-04-26 11:54 | 24.28507 | 104.93298 | 38951 ft | 540 kts | 104° |
| 2026-04-26 11:54 | 24.26743 | 105.01280 | 38947 ft | 538 kts | 105° |
| 2026-04-26 11:55 | 24.25274 | 105.07889 | 38927 ft | 534 kts | 105° |
| 2026-04-26 11:55 | 24.24094 | 105.13191 | 38923 ft | 531 kts | 105° |
| 2026-04-26 11:56 | 24.22353 | 105.21008 | 38919 ft | 526 kts | 105° |
| 2026-04-26 11:56 | 24.20534 | 105.28724 | 38921 ft | 527 kts | 107° |
| 2026-04-26 11:57 | 24.18622 | 105.36489 | 38920 ft | 528 kts | 106° |
| 2026-04-26 11:57 | 24.16751 | 105.44302 | 38917 ft | 528 kts | 107° |
| 2026-04-26 11:58 | 24.14869 | 105.52031 | 38920 ft | 527 kts | 106° |
| 2026-04-26 11:58 | 24.12975 | 105.59777 | 38920 ft | 526 kts | 107° |
| 2026-04-26 11:59 | 24.11074 | 105.67544 | 38918 ft | 526 kts | 107° |
| 2026-04-26 11:59 | 24.09276 | 105.75320 | 38920 ft | 527 kts | 104° |
| 2026-04-26 12:00 | 24.07785 | 105.83122 | 38921 ft | 527 kts | 103° |
| 2026-04-26 12:00 | 24.06257 | 105.90966 | 38920 ft | 527 kts | 103° |
| 2026-04-26 12:01 | 24.04688 | 105.98815 | 38922 ft | 527 kts | 104° |
| 2026-04-26 12:01 | 24.03115 | 106.06631 | 38922 ft | 527 kts | 104° |
| 2026-04-26 12:02 | 24.01565 | 106.14473 | 38922 ft | 526 kts | 104° |
| 2026-04-26 12:02 | 23.99999 | 106.22284 | 38930 ft | 526 kts | 103° |
| 2026-04-26 12:03 | 23.98441 | 106.30083 | 38927 ft | 527 kts | 104° |
| 2026-04-26 12:03 | 23.96859 | 106.37905 | 38926 ft | 527 kts | 104° |
| 2026-04-26 12:04 | 23.95262 | 106.45725 | 38938 ft | 527 kts | 104° |
| 2026-04-26 12:04 | 23.93661 | 106.53548 | 38942 ft | 527 kts | 104° |
| 2026-04-26 12:05 | 23.92374 | 106.60040 | 38940 ft | 527 kts | 101° |
| 2026-04-26 12:05 | 23.91533 | 106.68021 | 38952 ft | 527 kts | 94° |
| 2026-04-26 12:06 | 23.91276 | 106.73127 | 38955 ft | 528 kts | 93° |
| 2026-04-26 12:06 | 23.90868 | 106.81136 | 38954 ft | 528 kts | 94° |
| 2026-04-26 12:07 | 23.90356 | 106.89142 | 38958 ft | 528 kts | 95° |
| 2026-04-26 12:07 | 23.89815 | 106.97164 | 38960 ft | 528 kts | 95° |
| 2026-04-26 12:08 | 23.89301 | 107.05170 | 38960 ft | 528 kts | 95° |
| 2026-04-26 12:08 | 23.88766 | 107.13194 | 38962 ft | 528 kts | 95° |
| 2026-04-26 12:09 | 23.88224 | 107.21136 | 38962 ft | 528 kts | 95° |
| 2026-04-26 12:09 | 23.87670 | 107.29165 | 38961 ft | 529 kts | 95° |
| 2026-04-26 12:10 | 23.87113 | 107.37180 | 38962 ft | 529 kts | 95° |
| 2026-04-26 12:10 | 23.86551 | 107.45194 | 38962 ft | 530 kts | 95° |
| 2026-04-26 12:11 | 23.86001 | 107.53180 | 38962 ft | 530 kts | 95° |
| 2026-04-26 12:11 | 23.85437 | 107.61209 | 38958 ft | 530 kts | 95° |
| 2026-04-26 12:12 | 23.84853 | 107.69242 | 38957 ft | 531 kts | 95° |
| 2026-04-26 12:12 | 23.84265 | 107.77275 | 38958 ft | 531 kts | 95° |
| 2026-04-26 12:13 | 23.83677 | 107.85308 | 38958 ft | 531 kts | 95° |
| 2026-04-26 12:13 | 23.83262 | 107.93392 | 38959 ft | 532 kts | 93° |
| 2026-04-26 12:14 | 23.82872 | 108.01460 | 38960 ft | 532 kts | 94° |
| 2026-04-26 12:14 | 23.82450 | 108.09519 | 38960 ft | 532 kts | 94° |
| 2026-04-26 12:15 | 23.82026 | 108.17583 | 38960 ft | 531 kts | 94° |
| 2026-04-26 12:15 | 23.81568 | 108.25607 | 38960 ft | 531 kts | 94° |
| 2026-04-26 12:16 | 23.81101 | 108.33674 | 38962 ft | 531 kts | 94° |
| 2026-04-26 12:16 | 23.80933 | 108.36556 | 38962 ft | 531 kts | 94° |
| 2026-04-26 12:17 | 23.80463 | 108.44610 | 38963 ft | 530 kts | 94° |
| 2026-04-26 12:17 | 23.79991 | 108.52623 | 38964 ft | 530 kts | 94° |
| 2026-04-26 12:18 | 23.79546 | 108.60647 | 38972 ft | 529 kts | 94° |
| 2026-04-26 12:18 | 23.79085 | 108.68653 | 38973 ft | 528 kts | 94° |
| 2026-04-26 12:19 | 23.78613 | 108.76650 | 38976 ft | 527 kts | 94° |
| 2026-04-26 12:19 | 23.78154 | 108.84623 | 38977 ft | 527 kts | 94° |
| 2026-04-26 12:20 | 23.77673 | 108.92609 | 38978 ft | 526 kts | 94° |
| 2026-04-26 12:20 | 23.77182 | 109.00533 | 38980 ft | 526 kts | 94° |
| 2026-04-26 12:21 | 23.76686 | 109.08497 | 38982 ft | 526 kts | 94° |
| 2026-04-26 12:21 | 23.76042 | 109.16441 | 38981 ft | 525 kts | 99° |
| 2026-04-26 12:22 | 23.74612 | 109.24207 | 38985 ft | 525 kts | 104° |
| 2026-04-26 12:22 | 23.72878 | 109.31945 | 38988 ft | 526 kts | 104° |
| 2026-04-26 12:23 | 23.71225 | 109.39735 | 38992 ft | 526 kts | 104° |
| 2026-04-26 12:23 | 23.69617 | 109.47530 | 39001 ft | 526 kts | 104° |
| 2026-04-26 12:24 | 23.68032 | 109.55341 | 39005 ft | 526 kts | 103° |
| 2026-04-26 12:24 | 23.66459 | 109.63123 | 39006 ft | 526 kts | 103° |
| 2026-04-26 12:25 | 23.64073 | 109.74783 | 39011 ft | 526 kts | 104° |
| 2026-04-26 12:25 | 23.62467 | 109.82590 | 39011 ft | 527 kts | 104° |
| 2026-04-26 12:26 | 23.60859 | 109.90382 | 39011 ft | 527 kts | 104° |
| 2026-04-26 12:26 | 23.59780 | 109.95601 | 39014 ft | 527 kts | 103° |
| 2026-04-26 12:27 | 23.58175 | 110.03368 | 39016 ft | 527 kts | 103° |
| 2026-04-26 12:27 | 23.56568 | 110.11183 | 39017 ft | 528 kts | 104° |
| 2026-04-26 12:28 | 23.54944 | 110.18946 | 39015 ft | 528 kts | 104° |
| 2026-04-26 12:28 | 23.53310 | 110.26728 | 39015 ft | 527 kts | 104° |
| 2026-04-26 12:29 | 23.51667 | 110.34550 | 39016 ft | 528 kts | 104° |
| 2026-04-26 12:30 | 23.49290 | 110.46280 | 39016 ft | 529 kts | 103° |
| 2026-04-26 12:30 | 23.47692 | 110.54111 | 39017 ft | 529 kts | 103° |
| 2026-04-26 12:31 | 23.45292 | 110.65803 | 39017 ft | 529 kts | 103° |
| 2026-04-26 12:31 | 23.43692 | 110.73593 | 39017 ft | 529 kts | 103° |
| 2026-04-26 12:32 | 23.42032 | 110.81403 | 39018 ft | 529 kts | 104° |
| 2026-04-26 12:33 | 23.39561 | 110.93128 | 39019 ft | 529 kts | 104° |
| 2026-04-26 12:33 | 23.37892 | 111.00935 | 39018 ft | 529 kts | 104° |
| 2026-04-26 12:34 | 23.36219 | 111.08742 | 39019 ft | 529 kts | 104° |
| 2026-04-26 12:34 | 23.34549 | 111.16557 | 39022 ft | 529 kts | 103° |
| 2026-04-26 12:35 | 23.32995 | 111.24368 | 39022 ft | 529 kts | 102° |
| 2026-04-26 12:35 | 23.31424 | 111.32144 | 39022 ft | 529 kts | 103° |
| 2026-04-26 12:36 | 23.29827 | 111.39959 | 39023 ft | 529 kts | 103° |
| 2026-04-26 12:36 | 23.28231 | 111.47760 | 39023 ft | 528 kts | 103° |
| 2026-04-26 12:37 | 23.26637 | 111.55520 | 39023 ft | 528 kts | 103° |
| 2026-04-26 12:37 | 23.25949 | 111.58757 | 39025 ft | 528 kts | 103° |
| 2026-04-26 12:38 | 23.24287 | 111.66497 | 39026 ft | 527 kts | 103° |
| 2026-04-26 12:38 | 23.22620 | 111.74242 | 39025 ft | 526 kts | 103° |
| 2026-04-26 12:39 | 23.20949 | 111.82003 | 39027 ft | 526 kts | 103° |
| 2026-04-26 12:39 | 23.19324 | 111.89771 | 39029 ft | 526 kts | 103° |
| 2026-04-26 12:40 | 23.17711 | 111.97528 | 39029 ft | 526 kts | 103° |
| 2026-04-26 12:40 | 23.16106 | 112.05212 | 39029 ft | 526 kts | 103° |
| 2026-04-26 12:41 | 23.14482 | 112.12968 | 39029 ft | 526 kts | 103° |
| 2026-04-26 12:41 | 23.12890 | 112.20751 | 39029 ft | 526 kts | 103° |
| 2026-04-26 12:42 | 23.11278 | 112.28464 | 39031 ft | 526 kts | 103° |
| 2026-04-26 12:42 | 23.09641 | 112.36214 | 39031 ft | 526 kts | 103° |
| 2026-04-26 12:43 | 23.08000 | 112.43971 | 39030 ft | 526 kts | 103° |
| 2026-04-26 12:43 | 23.06631 | 112.51765 | 39029 ft | 526 kts | 96° |
| 2026-04-26 12:44 | 23.06076 | 112.59707 | 39030 ft | 527 kts | 92° |
| 2026-04-26 12:44 | 23.05690 | 112.67642 | 39030 ft | 528 kts | 92° |
| 2026-04-26 12:45 | 23.05177 | 112.75570 | 39030 ft | 528 kts | 93° |
| 2026-04-26 12:45 | 23.04632 | 112.83537 | 39030 ft | 529 kts | 93° |
| 2026-04-26 12:46 | 23.04127 | 112.91514 | 39029 ft | 529 kts | 93° |
| 2026-04-26 12:46 | 23.03581 | 112.99442 | 39030 ft | 529 kts | 94° |
| 2026-04-26 12:47 | 23.03018 | 113.07430 | 39030 ft | 529 kts | 94° |
| 2026-04-26 12:47 | 23.02382 | 113.15375 | 39018 ft | 529 kts | 99° |
| 2026-04-26 12:47 | 23.01411 | 113.19218 | 39029 ft | 528 kts | 112° |
| 2026-04-26 12:48 | 22.99714 | 113.22738 | 39028 ft | 526 kts | 127° |
| 2026-04-26 12:48 | 22.97317 | 113.25670 | 39036 ft | 522 kts | 141° |
| 2026-04-26 12:48 | 22.94472 | 113.28093 | 39033 ft | 520 kts | 147° |
| 2026-04-26 12:49 | 22.88771 | 113.32923 | 39030 ft | 519 kts | 143° |
| 2026-04-26 12:49 | 22.83411 | 113.38175 | 39030 ft | 518 kts | 139° |
| 2026-04-26 12:50 | 22.80766 | 113.40892 | 39030 ft | 518 kts | 139° |
| 2026-04-26 12:50 | 22.75567 | 113.46228 | 39032 ft | 519 kts | 139° |
| 2026-04-26 12:51 | 22.70326 | 113.51601 | 39034 ft | 518 kts | 139° |
| 2026-04-26 12:51 | 22.65091 | 113.56943 | 39037 ft | 521 kts | 137° |
| 2026-04-26 12:52 | 22.59752 | 113.62380 | 39038 ft | 526 kts | 138° |
| 2026-04-26 12:52 | 22.54497 | 113.67745 | 39037 ft | 521 kts | 137° |
| 2026-04-26 12:53 | 22.49207 | 113.73117 | 39054 ft | 521 kts | 137° |
| 2026-04-26 12:53 | 22.44825 | 113.77559 | 38983 ft | 517 kts | 137° |
| 2026-04-26 12:54 | 22.38713 | 113.83749 | 38961 ft | 518 kts | 136° |
| 2026-04-26 12:54 | 22.33513 | 113.89178 | 38961 ft | 520 kts | 132° |
| 2026-04-26 12:55 | 22.28784 | 113.94973 | 38996 ft | 503 kts | 131° |
| 2026-04-26 12:55 | 22.24125 | 114.00497 | 38993 ft | 493 kts | 133° |
| 2026-04-26 12:56 | 22.20523 | 114.05246 | 38991 ft | 491 kts | 125° |
| 2026-04-26 12:56 | 22.16812 | 114.11478 | 38988 ft | 496 kts | 121° |
| 2026-04-26 12:57 | 22.13786 | 114.18162 | 38984 ft | 499 kts | 108° |
| 2026-04-26 12:57 | 22.12526 | 114.25535 | 38986 ft | 502 kts | 94° |
| 2026-04-26 12:58 | 22.11991 | 114.36829 | 38984 ft | 501 kts | 91° |
| 2026-04-26 12:58 | 22.11751 | 114.44363 | 38983 ft | 505 kts | 90° |
| 2026-04-26 12:59 | 22.11506 | 114.51915 | 38982 ft | 508 kts | 90° |
| 2026-04-26 12:59 | 22.11253 | 114.59581 | 38982 ft | 508 kts | 90° |
| 2026-04-26 13:00 | 22.10997 | 114.67185 | 38981 ft | 512 kts | 89° |
| 2026-04-26 13:00 | 22.10735 | 114.74881 | 38981 ft | 514 kts | 89° |
| 2026-04-26 13:01 | 22.10559 | 114.79985 | 38981 ft | 513 kts | 89° |
| 2026-04-26 13:01 | 22.10304 | 114.87325 | 38978 ft | 516 kts | 90° |
| 2026-04-26 13:02 | 22.10029 | 114.95114 | 38980 ft | 522 kts | 90° |
| 2026-04-26 13:02 | 22.09748 | 115.02956 | 38980 ft | 523 kts | 90° |
| 2026-04-26 13:03 | 22.09464 | 115.10794 | 38979 ft | 523 kts | 92° |
| 2026-04-26 13:03 | 22.09177 | 115.18608 | 38979 ft | 526 kts | 92° |
| 2026-04-26 13:04 | 22.08883 | 115.26502 | 38980 ft | 524 kts | 90° |
| 2026-04-26 13:04 | 22.08589 | 115.34316 | 38979 ft | 522 kts | 92° |
| 2026-04-26 13:05 | 22.08289 | 115.42166 | 38979 ft | 526 kts | 92° |
| 2026-04-26 13:05 | 22.07983 | 115.50080 | 38979 ft | 528 kts | 92° |
| 2026-04-26 13:06 | 22.07676 | 115.57952 | 38980 ft | 528 kts | 92° |
| 2026-04-26 13:06 | 22.07362 | 115.65859 | 38980 ft | 528 kts | 92° |
| 2026-04-26 13:07 | 22.07045 | 115.73777 | 38980 ft | 528 kts | 92° |
| 2026-04-26 13:07 | 22.06724 | 115.81694 | 38980 ft | 529 kts | 92° |
| 2026-04-26 13:08 | 22.06399 | 115.89626 | 38980 ft | 529 kts | 92° |
| 2026-04-26 13:08 | 22.06070 | 115.97554 | 38980 ft | 529 kts | 92° |
| 2026-04-26 13:09 | 22.05737 | 116.05480 | 38980 ft | 529 kts | 92° |
| 2026-04-26 13:09 | 22.05402 | 116.13355 | 38980 ft | 529 kts | 92° |
| 2026-04-26 13:10 | 22.05062 | 116.21290 | 38980 ft | 529 kts | 92° |
| 2026-04-26 13:10 | 22.04717 | 116.29221 | 38981 ft | 529 kts | 93° |
| 2026-04-26 13:11 | 22.04369 | 116.37149 | 38982 ft | 529 kts | 92° |
| 2026-04-26 13:11 | 22.04136 | 116.42411 | 38982 ft | 529 kts | 92° |
| 2026-04-26 13:12 | 22.03852 | 116.48770 | 38982 ft | 529 kts | 92° |
| 2026-04-26 13:12 | 22.03495 | 116.56703 | 38985 ft | 530 kts | 93° |
| 2026-04-26 13:13 | 22.03133 | 116.64647 | 38986 ft | 530 kts | 93° |
| 2026-04-26 13:13 | 22.02771 | 116.72537 | 38986 ft | 530 kts | 92° |
| 2026-04-26 13:14 | 22.02400 | 116.80522 | 38988 ft | 530 kts | 92° |
| 2026-04-26 13:14 | 22.02031 | 116.88399 | 38989 ft | 530 kts | 92° |
| 2026-04-26 13:15 | 22.01654 | 116.96347 | 38989 ft | 530 kts | 92° |
| 2026-04-26 13:15 | 22.01275 | 117.04296 | 38989 ft | 530 kts | 93° |
| 2026-04-26 13:16 | 22.00893 | 117.12226 | 38990 ft | 530 kts | 92° |
| 2026-04-26 13:16 | 22.00569 | 117.20123 | 38990 ft | 530 kts | 92° |
| 2026-04-26 13:17 | 22.00035 | 117.32049 | 38989 ft | 531 kts | 92° |
| 2026-04-26 13:18 | 21.99470 | 117.43967 | 38989 ft | 531 kts | 92° |
| 2026-04-26 13:18 | 22.00092 | 117.51806 | 38990 ft | 529 kts | 73° |
| 2026-04-26 13:19 | 22.01411 | 117.55480 | 38991 ft | 526 kts | 59° |
| 2026-04-26 13:19 | 22.05341 | 117.62117 | 38990 ft | 525 kts | 52° |
| 2026-04-26 13:20 | 22.09540 | 117.68516 | 38990 ft | 521 kts | 52° |
| 2026-04-26 13:20 | 22.13481 | 117.75084 | 38990 ft | 522 kts | 55° |
| 2026-04-26 13:21 | 22.17200 | 117.81767 | 38991 ft | 523 kts | 56° |
| 2026-04-26 13:21 | 22.21001 | 117.88550 | 38990 ft | 524 kts | 56° |
| 2026-04-26 13:22 | 22.24761 | 117.95244 | 38990 ft | 524 kts | 56° |
| 2026-04-26 13:22 | 22.28551 | 118.01982 | 38990 ft | 524 kts | 55° |
| 2026-04-26 13:23 | 22.31811 | 118.07500 | 38991 ft | 524 kts | 54° |
| 2026-04-26 13:23 | 22.34835 | 118.12649 | 38991 ft | 524 kts | 54° |
| 2026-04-26 13:24 | 22.38728 | 118.19317 | 38992 ft | 524 kts | 54° |
| 2026-04-26 13:24 | 22.42583 | 118.26003 | 38992 ft | 524 kts | 55° |
| 2026-04-26 13:25 | 22.46386 | 118.32734 | 38992 ft | 524 kts | 55° |
| 2026-04-26 13:25 | 22.50186 | 118.39468 | 38994 ft | 524 kts | 55° |
| 2026-04-26 13:26 | 22.53965 | 118.46171 | 38993 ft | 524 kts | 55° |
| 2026-04-26 13:26 | 22.57770 | 118.52917 | 38993 ft | 524 kts | 55° |
| 2026-04-26 13:27 | 22.61607 | 118.59635 | 38995 ft | 525 kts | 55° |
| 2026-04-26 13:27 | 22.65451 | 118.66387 | 38998 ft | 526 kts | 55° |
| 2026-04-26 13:28 | 22.69285 | 118.73138 | 38998 ft | 526 kts | 55° |
| 2026-04-26 13:28 | 22.73091 | 118.79850 | 38997 ft | 526 kts | 55° |
| 2026-04-26 13:29 | 22.76937 | 118.86604 | 38999 ft | 526 kts | 54° |
| 2026-04-26 13:29 | 22.80784 | 118.93360 | 38999 ft | 525 kts | 55° |
| 2026-04-26 13:30 | 22.84610 | 119.00109 | 38999 ft | 525 kts | 54° |
| 2026-04-26 13:30 | 22.88429 | 119.06860 | 38999 ft | 525 kts | 54° |
| 2026-04-26 13:31 | 22.92227 | 119.13585 | 38999 ft | 525 kts | 54° |
| 2026-04-26 13:31 | 22.96045 | 119.20355 | 38999 ft | 525 kts | 54° |
| 2026-04-26 13:32 | 22.99853 | 119.27115 | 38999 ft | 524 kts | 54° |
| 2026-04-26 13:32 | 23.03662 | 119.33852 | 38999 ft | 524 kts | 54° |
| 2026-04-26 13:33 | 23.07455 | 119.40606 | 38996 ft | 522 kts | 54° |
| 2026-04-26 13:33 | 23.09955 | 119.45073 | 38996 ft | 521 kts | 54° |
| 2026-04-26 13:34 | 23.13438 | 119.51298 | 38994 ft | 520 kts | 54° |
| 2026-04-26 13:34 | 23.17368 | 119.57876 | 38994 ft | 517 kts | 46° |
| 2026-04-26 13:35 | 23.22664 | 119.62990 | 38994 ft | 504 kts | 24° |
| 2026-04-26 13:35 | 23.28887 | 119.66466 | 38992 ft | 503 kts | 21° |
| 2026-04-26 13:36 | 23.35070 | 119.69956 | 38990 ft | 498 kts | 23° |
| 2026-04-26 13:36 | 23.41062 | 119.73757 | 38990 ft | 499 kts | 25° |
| 2026-04-26 13:37 | 23.47042 | 119.77559 | 38934 ft | 502 kts | 24° |
| 2026-04-26 13:37 | 23.50041 | 119.79484 | 38604 ft | 499 kts | 25° |
| 2026-04-26 13:37 | 23.52988 | 119.81491 | 38044 ft | 497 kts | 27° |
| 2026-04-26 13:37 | 23.55889 | 119.83527 | 37572 ft | 492 kts | 27° |
| 2026-04-26 13:38 | 23.58756 | 119.85536 | 37028 ft | 489 kts | 27° |
| 2026-04-26 13:38 | 23.61631 | 119.87537 | 36402 ft | 488 kts | 28° |
| 2026-04-26 13:38 | 23.64463 | 119.89500 | 35783 ft | 488 kts | 28° |
| 2026-04-26 13:38 | 23.67276 | 119.91447 | 35169 ft | 488 kts | 28° |
| 2026-04-26 13:39 | 23.70148 | 119.93432 | 34543 ft | 489 kts | 28° |
| 2026-04-26 13:39 | 23.73034 | 119.95428 | 33671 ft | 493 kts | 28° |
| 2026-04-26 13:39 | 23.75967 | 119.97456 | 32395 ft | 506 kts | 28° |
| 2026-04-26 13:39 | 23.78976 | 119.99530 | 31173 ft | 515 kts | 28° |
| 2026-04-26 13:40 | 23.80988 | 120.00914 | 30475 ft | 518 kts | 28° |
| 2026-04-26 13:40 | 23.83985 | 120.02981 | 29531 ft | 493 kts | 28° |
| 2026-04-26 13:40 | 23.86865 | 120.04959 | 28112 ft | 491 kts | 28° |
| 2026-04-26 13:40 | 23.90711 | 120.07619 | 26840 ft | 481 kts | 28° |
| 2026-04-26 13:41 | 23.93478 | 120.09537 | 25602 ft | 462 kts | 28° |
| 2026-04-26 13:41 | 23.96174 | 120.11409 | 24387 ft | 459 kts | 28° |
| 2026-04-26 13:41 | 23.97963 | 120.12652 | 23865 ft | 462 kts | 28° |
| 2026-04-26 13:41 | 24.01568 | 120.15157 | 23235 ft | 460 kts | 28° |
| 2026-04-26 13:42 | 24.03372 | 120.16411 | 23085 ft | 457 kts | 28° |
| 2026-04-26 13:42 | 24.06902 | 120.18865 | 22607 ft | 449 kts | 28° |
| 2026-04-26 13:42 | 24.08680 | 120.20101 | 22124 ft | 450 kts | 28° |
| 2026-04-26 13:42 | 24.11309 | 120.21930 | 21522 ft | 446 kts | 28° |
| 2026-04-26 13:43 | 24.13916 | 120.23744 | 20930 ft | 441 kts | 28° |
| 2026-04-26 13:43 | 24.17306 | 120.26104 | 20252 ft | 433 kts | 28° |
| 2026-04-26 13:43 | 24.18997 | 120.27282 | 19862 ft | 430 kts | 29° |
| 2026-04-26 13:43 | 24.21543 | 120.29058 | 19278 ft | 426 kts | 29° |
| 2026-04-26 13:44 | 24.23928 | 120.30722 | 18726 ft | 422 kts | 29° |
| 2026-04-26 13:44 | 24.26379 | 120.32434 | 18157 ft | 418 kts | 29° |
| 2026-04-26 13:44 | 24.28820 | 120.34138 | 17573 ft | 415 kts | 29° |
| 2026-04-26 13:44 | 24.31251 | 120.35837 | 16993 ft | 412 kts | 30° |
| 2026-04-26 13:45 | 24.33657 | 120.37518 | 16417 ft | 409 kts | 30° |
| 2026-04-26 13:45 | 24.36046 | 120.39190 | 15847 ft | 405 kts | 30° |
| 2026-04-26 13:45 | 24.38422 | 120.40852 | 15283 ft | 402 kts | 30° |
| 2026-04-26 13:45 | 24.40776 | 120.42494 | 14715 ft | 399 kts | 30° |
| 2026-04-26 13:46 | 24.43116 | 120.44113 | 14165 ft | 395 kts | 30° |
| 2026-04-26 13:46 | 24.45427 | 120.45720 | 13613 ft | 392 kts | 30° |
| 2026-04-26 13:46 | 24.47729 | 120.47329 | 13054 ft | 389 kts | 30° |
| 2026-04-26 13:46 | 24.49971 | 120.48900 | 12523 ft | 386 kts | 30° |
| 2026-04-26 13:47 | 24.52236 | 120.50489 | 11988 ft | 383 kts | 31° |
| 2026-04-26 13:47 | 24.54466 | 120.52055 | 11461 ft | 380 kts | 31° |
| 2026-04-26 13:47 | 24.56690 | 120.53617 | 10899 ft | 378 kts | 31° |
| 2026-04-26 13:47 | 24.58902 | 120.55171 | 10500 ft | 370 kts | 31° |
| 2026-04-26 13:48 | 24.60946 | 120.56609 | 10446 ft | 328 kts | 31° |
| 2026-04-26 13:48 | 24.62769 | 120.57890 | 10381 ft | 294 kts | 31° |
| 2026-04-26 13:48 | 24.64435 | 120.59060 | 10327 ft | 280 kts | 30° |
| 2026-04-26 13:48 | 24.66048 | 120.60193 | 10251 ft | 271 kts | 30° |
| 2026-04-26 13:49 | 24.67585 | 120.61328 | 10172 ft | 268 kts | 33° |
| 2026-04-26 13:49 | 24.69070 | 120.62617 | 9981 ft | 266 kts | 37° |
| 2026-04-26 13:49 | 24.70437 | 120.63922 | 9801 ft | 261 kts | 40° |
| 2026-04-26 13:49 | 24.71784 | 120.65279 | 9514 ft | 259 kts | 41° |
| 2026-04-26 13:50 | 24.73028 | 120.66550 | 9220 ft | 258 kts | 41° |
| 2026-04-26 13:50 | 24.74338 | 120.67876 | 8977 ft | 253 kts | 41° |
| 2026-04-26 13:50 | 24.75625 | 120.69164 | 8824 ft | 245 kts | 40° |
| 2026-04-26 13:50 | 24.76879 | 120.70411 | 8617 ft | 240 kts | 40° |
| 2026-04-26 13:51 | 24.78094 | 120.71617 | 8407 ft | 234 kts | 40° |
| 2026-04-26 13:51 | 24.79296 | 120.72806 | 8187 ft | 231 kts | 40° |
| 2026-04-26 13:51 | 24.80498 | 120.73994 | 7956 ft | 234 kts | 40° |
| 2026-04-26 13:51 | 24.81722 | 120.75202 | 7734 ft | 237 kts | 40° |
| 2026-04-26 13:52 | 24.82946 | 120.76411 | 7507 ft | 234 kts | 40° |
| 2026-04-26 13:52 | 24.84153 | 120.77602 | 7232 ft | 232 kts | 40° |
| 2026-04-26 13:52 | 24.85353 | 120.78786 | 6924 ft | 232 kts | 40° |
| 2026-04-26 13:52 | 24.86555 | 120.79973 | 6565 ft | 233 kts | 40° |
| 2026-04-26 13:53 | 24.87750 | 120.81152 | 6187 ft | 230 kts | 40° |
| 2026-04-26 13:53 | 24.88934 | 120.82320 | 5878 ft | 223 kts | 40° |
| 2026-04-26 13:53 | 24.90058 | 120.83428 | 5561 ft | 222 kts | 40° |
| 2026-04-26 13:53 | 24.91177 | 120.84554 | 5304 ft | 219 kts | 43° |
| 2026-04-26 13:54 | 24.91958 | 120.86002 | 4920 ft | 222 kts | 69° |
| 2026-04-26 13:54 | 24.92117 | 120.87640 | 4733 ft | 217 kts | 88° |
| 2026-04-26 13:54 | 24.92011 | 120.89252 | 4513 ft | 207 kts | 95° |
| 2026-04-26 13:55 | 24.91678 | 120.92320 | 3994 ft | 197 kts | 95° |
| 2026-04-26 13:55 | 24.91589 | 120.93315 | 3857 ft | 195 kts | 95° |
| 2026-04-26 13:55 | 24.91380 | 120.96774 | 3398 ft | 188 kts | 94° |
| 2026-04-26 13:56 | 24.91313 | 120.98180 | 3274 ft | 179 kts | 94° |
| 2026-04-26 13:56 | 24.91248 | 120.99528 | 3112 ft | 172 kts | 93° |
| 2026-04-26 13:56 | 24.91295 | 121.00815 | 2867 ft | 170 kts | 84° |
| 2026-04-26 13:57 | 24.91503 | 121.01561 | 2701 ft | 170 kts | 72° |
| 2026-04-26 13:57 | 24.92130 | 121.02624 | 2560 ft | 161 kts | 56° |
| 2026-04-26 13:57 | 24.92863 | 121.03558 | 2494 ft | 162 kts | 50° |
| 2026-04-26 13:57 | 24.93655 | 121.04465 | 2507 ft | 165 kts | 47° |
| 2026-04-26 13:58 | 24.94444 | 121.05380 | 2509 ft | 166 kts | 48° |
| 2026-04-26 13:58 | 24.95228 | 121.06330 | 2498 ft | 168 kts | 49° |
| 2026-04-26 13:58 | 24.95993 | 121.07277 | 2507 ft | 168 kts | 50° |
| 2026-04-26 13:58 | 24.96759 | 121.08238 | 2539 ft | 166 kts | 49° |
| 2026-04-26 13:59 | 24.97510 | 121.09186 | 2508 ft | 160 kts | 49° |
| 2026-04-26 13:59 | 24.98218 | 121.10081 | 2516 ft | 151 kts | 49° |
| 2026-04-26 13:59 | 24.98895 | 121.10940 | 2521 ft | 149 kts | 49° |
| 2026-04-26 14:00 | 25.00880 | 121.13457 | 2006 ft | 142 kts | 49° |
| 2026-04-26 14:00 | 25.01523 | 121.14274 | 1818 ft | 141 kts | 49° |
| 2026-04-26 14:00 | 25.01950 | 121.14815 | 1693 ft | 141 kts | 49° |
| 2026-04-26 14:01 | 25.02799 | 121.15893 | 1446 ft | 140 kts | 50° |
| 2026-04-26 14:01 | 25.03443 | 121.16711 | 1259 ft | 139 kts | 50° |
| 2026-04-26 14:01 | 25.04070 | 121.17507 | 1070 ft | 136 kts | 51° |
| 2026-04-26 14:01 | 25.04686 | 121.18290 | 892 ft | 134 kts | 51° |
| 2026-04-26 14:02 | 25.05296 | 121.19064 | 712 ft | 135 kts | 51° |
| 2026-04-26 14:02 | 25.05911 | 121.19845 | 543 ft | 136 kts | 51° |
| 2026-04-26 14:02 | 25.06540 | 121.20645 | 361 ft | 138 kts | 51° |
| 2026-04-26 14:03 | 25.06995 | 121.21223 | 234 ft | 139 kts | 51° |
| 2026-04-26 14:03 | 25.07608 | 121.22003 | 123 ft | 131 kts | 51° |
| 2026-04-26 14:03 | 25.08124 | 121.22661 | 121 ft | 92 kts | 50° |
| 2026-04-26 14:03 | 25.08440 | 121.23066 | 121 ft | 48 kts | 50° |
| 2026-04-26 14:04 | 25.08591 | 121.23253 | 121 ft | 26 kts | 48° |
| 2026-04-26 14:04 | 25.08666 | 121.23360 | 121 ft | 13 kts | 59° |
| 2026-04-26 14:04 | 25.08701 | 121.23450 | 121 ft | 12 kts | 72° |
| 2026-04-26 14:04 | 25.08716 | 121.23542 | 121 ft | 12 kts | 80° |
| 2026-04-26 14:05 | 25.08728 | 121.23620 | 121 ft | 9 kts | 81° |
| 2026-04-26 14:05 | 25.08719 | 121.23650 | 121 ft | 4 kts | 136° |
| 2026-04-26 14:05 | 25.08697 | 121.23665 | 121 ft | 4 kts | 158° |
| 2026-04-26 14:05 | 25.08667 | 121.23661 | 121 ft | 7 kts | 202° |
| 2026-04-26 14:06 | 25.08618 | 121.23613 | 121 ft | 10 kts | 228° |
| 2026-04-26 14:06 | 25.08573 | 121.23554 | 121 ft | 10 kts | 229° |
| 2026-04-26 14:06 | 25.08530 | 121.23500 | 121 ft | 9 kts | 229° |
| 2026-04-26 14:06 | 25.08475 | 121.23477 | 121 ft | 9 kts | 167° |
| 2026-04-26 14:07 | 25.08419 | 121.23498 | 121 ft | 8 kts | 186° |
| 2026-04-26 14:07 | 25.08375 | 121.23460 | 121 ft | 8 kts | 226° |
| 2026-04-26 14:07 | 25.08358 | 121.23440 | 121 ft | 0 kts | 228° |
| 2026-04-26 14:09 | 25.08356 | 121.23438 | 121 ft | 1 kts | 228° |
| 2026-04-26 14:09 | 25.08355 | 121.23438 | 121 ft | 1 kts | 228° |
| 2026-04-26 14:10 | 25.08355 | 121.23437 | 121 ft | 0 kts | 228° |
| 2026-04-26 14:10 | 25.08332 | 121.23409 | 121 ft | 3 kts | 229° |
| 2026-04-26 14:11 | 25.08313 | 121.23384 | 121 ft | 0 kts | 229° |
| 2026-04-26 14:11 | 25.08299 | 121.23367 | 121 ft | 5 kts | 229° |
| 2026-04-26 14:12 | 25.08275 | 121.23336 | 121 ft | 8 kts | 229° |
| 2026-04-26 14:12 | 25.08210 | 121.23256 | 121 ft | 20 kts | 228° |
| 2026-04-26 14:12 | 25.08133 | 121.23158 | 121 ft | 16 kts | 229° |
| 2026-04-26 14:12 | 25.08063 | 121.23068 | 121 ft | 15 kts | 229° |
| 2026-04-26 14:13 | 25.07935 | 121.22906 | 121 ft | 13 kts | 229° |
| 2026-04-26 14:13 | 25.07877 | 121.22833 | 121 ft | 12 kts | 229° |
| 2026-04-26 14:13 | 25.07831 | 121.22776 | 121 ft | 6 kts | 230° |
| 2026-04-26 14:14 | 25.07800 | 121.22748 | 121 ft | 6 kts | 193° |
| 2026-04-26 14:14 | 25.07771 | 121.22757 | 121 ft | 3 kts | 150° |
| 2026-04-26 14:14 | 25.07753 | 121.22771 | 121 ft | 3 kts | 146° |
| 2026-04-26 14:14 | 25.07737 | 121.22784 | 121 ft | 3 kts | 139° |
| 2026-04-26 14:15 | 25.07725 | 121.22797 | 121 ft | 2 kts | 139° |
| 2026-04-26 14:15 | 25.07718 | 121.22803 | 121 ft | 0 kts | 139° |
| 2026-04-26 14:15 | 25.07717 | 121.22804 | 121 ft | 0 kts | 139° |